THY3169 CYYZ-LTFM
Flight info
| Callsign | THY3169 |
|---|---|
| Flight time | N/A |
| Altitude | 33000 |
| Route | SEDOG6 BOBSU DCT MOFAT DCT PUVOK/N0493F350 DCT LOMTA/M084F350 DCT SAVRY DCT 63N050W 65N040W 66N030W 65N020W 63N010W DCT VALDI/N0489F370 DCT NIROD DCT GOTEX DCT ERNOV DCT GOSOT L996 TILAV DCT OLNED DCT BAREX DCT NAXAR DCT KELEL DCT ETNIK DCT BADOR DCT CONWI DCT TIMUR L606 GASRU T390 RILEX |
| Aircraft | B77W/H-SDE1E2E3FGHIJ2J3J4J5M1RWXY/LB1D1 |
Departure
| Time | N/A |
|---|---|
| Airport | Toronto Pearson International Airport (CYYZ) |
Arrival
| Time | 2026-05-04 05:06 |
|---|---|
| Airport | İstanbul Airport (LTFM) |
| Time | Latitude | Longitude | Altitude | Speed | Heading |
|---|---|---|---|---|---|
| 2026-05-03 20:15 | 45.54394 | -78.39063 | 32830 ft | 494 kts | 37° |
| 2026-05-03 20:15 | 45.59455 | -78.32345 | 32846 ft | 497 kts | 40° |
| 2026-05-03 20:16 | 45.64477 | -78.25471 | 32830 ft | 499 kts | 40° |
| 2026-05-03 20:16 | 45.69494 | -78.18643 | 32825 ft | 500 kts | 40° |
| 2026-05-03 20:17 | 45.74565 | -78.11778 | 32820 ft | 501 kts | 40° |
| 2026-05-03 20:17 | 45.79638 | -78.04911 | 32819 ft | 501 kts | 40° |
| 2026-05-03 20:18 | 45.84683 | -77.98064 | 32814 ft | 501 kts | 40° |
| 2026-05-03 20:18 | 45.89737 | -77.91181 | 32812 ft | 501 kts | 40° |
| 2026-05-03 20:19 | 45.94796 | -77.84272 | 32828 ft | 500 kts | 40° |
| 2026-05-03 20:19 | 45.99837 | -77.77371 | 32810 ft | 500 kts | 40° |
| 2026-05-03 20:20 | 46.04845 | -77.70497 | 32807 ft | 499 kts | 41° |
| 2026-05-03 20:20 | 46.09877 | -77.63570 | 32797 ft | 499 kts | 41° |
| 2026-05-03 20:21 | 46.14892 | -77.56650 | 32805 ft | 499 kts | 41° |
| 2026-05-03 20:21 | 46.19888 | -77.49738 | 32804 ft | 499 kts | 41° |
| 2026-05-03 20:22 | 46.24914 | -77.42765 | 32806 ft | 500 kts | 41° |
| 2026-05-03 20:22 | 46.29905 | -77.35822 | 32805 ft | 500 kts | 41° |
| 2026-05-03 20:23 | 46.34934 | -77.28807 | 32785 ft | 500 kts | 41° |
| 2026-05-03 20:23 | 46.39925 | -77.21827 | 32801 ft | 500 kts | 41° |
| 2026-05-03 20:24 | 46.44941 | -77.14793 | 32799 ft | 500 kts | 41° |
| 2026-05-03 20:24 | 46.49913 | -77.07803 | 32786 ft | 501 kts | 41° |
| 2026-05-03 20:25 | 46.54920 | -77.00742 | 32794 ft | 501 kts | 41° |
| 2026-05-03 20:25 | 46.59929 | -76.93661 | 32790 ft | 501 kts | 41° |
| 2026-05-03 20:26 | 46.64910 | -76.86600 | 32799 ft | 502 kts | 41° |
| 2026-05-03 20:26 | 46.69915 | -76.79485 | 32788 ft | 502 kts | 41° |
| 2026-05-03 20:27 | 46.74891 | -76.72393 | 32790 ft | 502 kts | 41° |
| 2026-05-03 20:27 | 46.79901 | -76.65234 | 32786 ft | 502 kts | 42° |
| 2026-05-03 20:28 | 46.84870 | -76.58112 | 32795 ft | 503 kts | 42° |
| 2026-05-03 20:28 | 46.89860 | -76.50940 | 32787 ft | 503 kts | 42° |
| 2026-05-03 20:29 | 46.94856 | -76.43742 | 32795 ft | 503 kts | 42° |
| 2026-05-03 20:29 | 46.99808 | -76.36585 | 32806 ft | 503 kts | 42° |
| 2026-05-03 20:30 | 47.04790 | -76.29366 | 32793 ft | 503 kts | 42° |
| 2026-05-03 20:30 | 47.09774 | -76.22122 | 32795 ft | 502 kts | 42° |
| 2026-05-03 20:31 | 47.14714 | -76.14924 | 32800 ft | 502 kts | 42° |
| 2026-05-03 20:31 | 47.19678 | -76.07672 | 32806 ft | 502 kts | 42° |
| 2026-05-03 20:32 | 47.24608 | -76.00447 | 32802 ft | 502 kts | 42° |
| 2026-05-03 20:32 | 47.28728 | -75.94396 | 32800 ft | 502 kts | 42° |
| 2026-05-03 20:33 | 47.33683 | -75.87097 | 32807 ft | 502 kts | 43° |
| 2026-05-03 20:33 | 47.38604 | -75.79831 | 32810 ft | 502 kts | 43° |
| 2026-05-03 20:34 | 47.43551 | -75.72503 | 32804 ft | 503 kts | 43° |
| 2026-05-03 20:34 | 47.48484 | -75.65176 | 32808 ft | 503 kts | 43° |
| 2026-05-03 20:35 | 47.53395 | -75.57860 | 32811 ft | 503 kts | 43° |
| 2026-05-03 20:35 | 47.58329 | -75.50492 | 32806 ft | 503 kts | 43° |
| 2026-05-03 20:36 | 47.63252 | -75.43116 | 32805 ft | 503 kts | 43° |
| 2026-05-03 20:36 | 47.68161 | -75.35741 | 32809 ft | 503 kts | 43° |
| 2026-05-03 20:37 | 47.73077 | -75.28336 | 32817 ft | 503 kts | 43° |
| 2026-05-03 20:37 | 47.77972 | -75.20939 | 32810 ft | 504 kts | 43° |
| 2026-05-03 20:38 | 47.82889 | -75.13489 | 32801 ft | 504 kts | 43° |
| 2026-05-03 20:38 | 47.87806 | -75.06018 | 32808 ft | 504 kts | 43° |
| 2026-05-03 20:39 | 47.92682 | -74.98588 | 32809 ft | 504 kts | 43° |
| 2026-05-03 20:39 | 47.97586 | -74.91094 | 32804 ft | 504 kts | 43° |
| 2026-05-03 20:40 | 48.02499 | -74.83564 | 32808 ft | 504 kts | 44° |
| 2026-05-03 20:40 | 48.07390 | -74.76044 | 32815 ft | 505 kts | 44° |
| 2026-05-03 20:41 | 48.12266 | -74.68527 | 32808 ft | 505 kts | 44° |
| 2026-05-03 20:41 | 48.17163 | -74.60955 | 32820 ft | 505 kts | 44° |
| 2026-05-03 20:42 | 48.22040 | -74.53393 | 32818 ft | 505 kts | 44° |
| 2026-05-03 20:42 | 48.26932 | -74.45785 | 32804 ft | 506 kts | 44° |
| 2026-05-03 20:43 | 48.31803 | -74.38188 | 32802 ft | 506 kts | 44° |
| 2026-05-03 20:43 | 48.36690 | -74.30544 | 32803 ft | 506 kts | 45° |
| 2026-05-03 20:44 | 48.41547 | -74.22922 | 32818 ft | 507 kts | 45° |
| 2026-05-03 20:44 | 48.46427 | -74.15243 | 32806 ft | 507 kts | 45° |
| 2026-05-03 20:45 | 48.51313 | -74.07530 | 32807 ft | 508 kts | 45° |
| 2026-05-03 20:45 | 48.56181 | -73.99824 | 32809 ft | 508 kts | 45° |
| 2026-05-03 20:46 | 48.61041 | -73.92108 | 32811 ft | 508 kts | 45° |
| 2026-05-03 20:46 | 48.65913 | -73.84349 | 32817 ft | 509 kts | 45° |
| 2026-05-03 20:47 | 48.70762 | -73.76603 | 32806 ft | 509 kts | 45° |
| 2026-05-03 20:47 | 48.75643 | -73.68784 | 32812 ft | 509 kts | 45° |
| 2026-05-03 20:48 | 48.80475 | -73.61019 | 32811 ft | 509 kts | 46° |
| 2026-05-03 20:48 | 48.85343 | -73.53172 | 32817 ft | 510 kts | 46° |
| 2026-05-03 20:49 | 48.90212 | -73.45299 | 32822 ft | 511 kts | 46° |
| 2026-05-03 20:49 | 48.95081 | -73.37402 | 32822 ft | 511 kts | 46° |
| 2026-05-03 20:50 | 48.99915 | -73.29539 | 32825 ft | 512 kts | 47° |
| 2026-05-03 20:50 | 49.04803 | -73.21563 | 32828 ft | 513 kts | 47° |
| 2026-05-03 20:51 | 49.09636 | -73.13650 | 32828 ft | 513 kts | 47° |
| 2026-05-03 20:51 | 49.14504 | -73.05661 | 32829 ft | 513 kts | 47° |
| 2026-05-03 20:52 | 49.19759 | -72.98287 | 32836 ft | 512 kts | 37° |
| 2026-05-03 20:52 | 49.25691 | -72.92362 | 32844 ft | 511 kts | 31° |
| 2026-05-03 20:53 | 49.31740 | -72.86697 | 32832 ft | 512 kts | 31° |
| 2026-05-03 20:53 | 49.37810 | -72.80956 | 32829 ft | 512 kts | 32° |
| 2026-05-03 20:54 | 49.43890 | -72.75121 | 32825 ft | 515 kts | 32° |
| 2026-05-03 20:54 | 49.52994 | -72.66318 | 32823 ft | 518 kts | 32° |
| 2026-05-03 20:55 | 49.59078 | -72.60418 | 32824 ft | 519 kts | 32° |
| 2026-05-03 20:55 | 49.65203 | -72.54463 | 32813 ft | 520 kts | 32° |
| 2026-05-03 20:56 | 49.71336 | -72.48483 | 32813 ft | 520 kts | 32° |
| 2026-05-03 20:56 | 49.77409 | -72.42543 | 32811 ft | 519 kts | 32° |
| 2026-05-03 20:57 | 49.83532 | -72.36537 | 32819 ft | 519 kts | 32° |
| 2026-05-03 20:57 | 49.89602 | -72.30564 | 32813 ft | 518 kts | 32° |
| 2026-05-03 20:58 | 49.95693 | -72.24552 | 32817 ft | 517 kts | 32° |
| 2026-05-03 20:58 | 50.01748 | -72.18558 | 32805 ft | 518 kts | 33° |
| 2026-05-03 20:59 | 50.07842 | -72.12507 | 32816 ft | 518 kts | 33° |
| 2026-05-03 20:59 | 50.13893 | -72.06480 | 32806 ft | 519 kts | 33° |
| 2026-05-03 21:00 | 50.18958 | -72.01421 | 32817 ft | 519 kts | 33° |
| 2026-05-03 21:00 | 50.26082 | -71.94283 | 32820 ft | 520 kts | 33° |
| 2026-05-03 21:01 | 50.32182 | -71.88151 | 32817 ft | 521 kts | 33° |
| 2026-05-03 21:01 | 50.38250 | -71.82031 | 32803 ft | 522 kts | 33° |
| 2026-05-03 21:02 | 50.44381 | -71.75830 | 32809 ft | 523 kts | 33° |
| 2026-05-03 21:02 | 50.50463 | -71.69659 | 32799 ft | 523 kts | 33° |
| 2026-05-03 21:03 | 50.56587 | -71.63426 | 32801 ft | 523 kts | 33° |
| 2026-05-03 21:03 | 50.62704 | -71.57180 | 32799 ft | 523 kts | 33° |
| 2026-05-03 21:04 | 50.68784 | -71.50953 | 32795 ft | 524 kts | 33° |
| 2026-05-03 21:04 | 50.74907 | -71.44662 | 32795 ft | 524 kts | 33° |
| 2026-05-03 21:05 | 50.80991 | -71.38398 | 32800 ft | 525 kts | 34° |
| 2026-05-03 21:05 | 50.87151 | -71.32023 | 32797 ft | 528 kts | 34° |
| 2026-05-03 21:06 | 50.93280 | -71.25662 | 32803 ft | 530 kts | 34° |
| 2026-05-03 21:06 | 50.99466 | -71.19225 | 32787 ft | 532 kts | 34° |
| 2026-05-03 21:07 | 51.05661 | -71.12758 | 32792 ft | 533 kts | 34° |
| 2026-05-03 21:07 | 51.11822 | -71.06304 | 32772 ft | 533 kts | 34° |
| 2026-05-03 21:08 | 51.18033 | -70.99778 | 32769 ft | 533 kts | 34° |
| 2026-05-03 21:08 | 51.24195 | -70.93282 | 32782 ft | 533 kts | 34° |
| 2026-05-03 21:09 | 51.30389 | -70.86730 | 32786 ft | 533 kts | 34° |
| 2026-05-03 21:09 | 51.36539 | -70.80204 | 32780 ft | 532 kts | 34° |
| 2026-05-03 21:10 | 51.42716 | -70.73626 | 32776 ft | 533 kts | 34° |
| 2026-05-03 21:10 | 51.48895 | -70.67026 | 32781 ft | 533 kts | 35° |
| 2026-05-03 21:11 | 51.55061 | -70.60417 | 32780 ft | 533 kts | 35° |
| 2026-05-03 21:11 | 51.61217 | -70.53797 | 32799 ft | 534 kts | 35° |
| 2026-05-03 21:12 | 51.67376 | -70.47152 | 32783 ft | 534 kts | 35° |
| 2026-05-03 21:12 | 51.73530 | -70.40490 | 32801 ft | 534 kts | 35° |
| 2026-05-03 21:13 | 51.79704 | -70.33784 | 32787 ft | 535 kts | 35° |
| 2026-05-03 21:13 | 51.85898 | -70.27034 | 32787 ft | 535 kts | 35° |
| 2026-05-03 21:14 | 51.92040 | -70.20318 | 32789 ft | 535 kts | 35° |
| 2026-05-03 21:14 | 51.98195 | -70.13565 | 32808 ft | 535 kts | 35° |
| 2026-05-03 21:15 | 52.04372 | -70.06765 | 32787 ft | 535 kts | 35° |
| 2026-05-03 21:15 | 52.10510 | -69.99985 | 32808 ft | 535 kts | 36° |
| 2026-05-03 21:16 | 52.16670 | -69.93157 | 32792 ft | 535 kts | 36° |
| 2026-05-03 21:16 | 52.22838 | -69.86297 | 32779 ft | 536 kts | 36° |
| 2026-05-03 21:17 | 52.27979 | -69.80561 | 32780 ft | 537 kts | 36° |
| 2026-05-03 21:17 | 52.35147 | -69.72535 | 32804 ft | 540 kts | 36° |
| 2026-05-03 21:18 | 52.40328 | -69.66716 | 32808 ft | 542 kts | 36° |
| 2026-05-03 21:18 | 52.47574 | -69.58547 | 32806 ft | 543 kts | 36° |
| 2026-05-03 21:19 | 52.52774 | -69.52666 | 32803 ft | 544 kts | 36° |
| 2026-05-03 21:19 | 52.58986 | -69.45617 | 32801 ft | 544 kts | 36° |
| 2026-05-03 21:20 | 52.65214 | -69.38524 | 32806 ft | 543 kts | 36° |
| 2026-05-03 21:20 | 52.71443 | -69.31405 | 32803 ft | 543 kts | 36° |
| 2026-05-03 21:21 | 52.77614 | -69.24327 | 32814 ft | 543 kts | 37° |
| 2026-05-03 21:21 | 52.83821 | -69.17183 | 32811 ft | 543 kts | 37° |
| 2026-05-03 21:22 | 52.90001 | -69.10043 | 32817 ft | 543 kts | 37° |
| 2026-05-03 21:22 | 52.96209 | -69.02848 | 32816 ft | 543 kts | 37° |
| 2026-05-03 21:23 | 53.02423 | -68.95618 | 32818 ft | 544 kts | 37° |
| 2026-05-03 21:23 | 53.08581 | -68.88429 | 32820 ft | 544 kts | 37° |
| 2026-05-03 21:24 | 53.14795 | -68.81148 | 32811 ft | 545 kts | 37° |
| 2026-05-03 21:24 | 53.21005 | -68.73845 | 32820 ft | 545 kts | 37° |
| 2026-05-03 21:25 | 53.27171 | -68.66569 | 32815 ft | 546 kts | 37° |
| 2026-05-03 21:25 | 53.33376 | -68.59219 | 32819 ft | 546 kts | 37° |
| 2026-05-03 21:26 | 53.39596 | -68.51825 | 32822 ft | 546 kts | 37° |
| 2026-05-03 21:26 | 53.45758 | -68.44474 | 32825 ft | 547 kts | 37° |
| 2026-05-03 21:27 | 53.51974 | -68.37029 | 32826 ft | 546 kts | 37° |
| 2026-05-03 21:27 | 53.58126 | -68.29635 | 32820 ft | 546 kts | 37° |
| 2026-05-03 21:28 | 53.64312 | -68.22173 | 32834 ft | 546 kts | 37° |
| 2026-05-03 21:28 | 53.70503 | -68.14677 | 32829 ft | 546 kts | 37° |
| 2026-05-03 21:29 | 53.76643 | -68.07215 | 32837 ft | 547 kts | 37° |
| 2026-05-03 21:29 | 53.82833 | -67.99666 | 32830 ft | 547 kts | 37° |
| 2026-05-03 21:30 | 53.89010 | -67.92103 | 32832 ft | 547 kts | 37° |
| 2026-05-03 21:30 | 53.95139 | -67.84572 | 32834 ft | 547 kts | 37° |
| 2026-05-03 21:31 | 54.01307 | -67.76964 | 32834 ft | 547 kts | 37° |
| 2026-05-03 21:31 | 54.07446 | -67.69364 | 32836 ft | 546 kts | 38° |
| 2026-05-03 21:32 | 54.13570 | -67.61754 | 32835 ft | 546 kts | 38° |
| 2026-05-03 21:32 | 54.19714 | -67.54089 | 32829 ft | 546 kts | 38° |
| 2026-05-03 21:33 | 54.25856 | -67.46400 | 32834 ft | 546 kts | 38° |
| 2026-05-03 21:33 | 54.31961 | -67.38727 | 32839 ft | 546 kts | 38° |
| 2026-05-03 21:34 | 54.38093 | -67.30990 | 32837 ft | 546 kts | 38° |
| 2026-05-03 21:34 | 54.44221 | -67.23230 | 32841 ft | 546 kts | 38° |
| 2026-05-03 21:35 | 54.50306 | -67.15496 | 32838 ft | 546 kts | 38° |
| 2026-05-03 21:35 | 54.56416 | -67.07700 | 32828 ft | 545 kts | 38° |
| 2026-05-03 21:36 | 54.62506 | -66.99898 | 32821 ft | 544 kts | 38° |
| 2026-05-03 21:36 | 54.68552 | -66.92124 | 32801 ft | 543 kts | 38° |
| 2026-05-03 21:37 | 54.74616 | -66.84295 | 32798 ft | 543 kts | 38° |
| 2026-05-03 21:37 | 54.80644 | -66.76478 | 32791 ft | 543 kts | 39° |
| 2026-05-03 21:38 | 54.86351 | -66.67907 | 32855 ft | 540 kts | 45° |
| 2026-05-03 21:38 | 54.91833 | -66.59061 | 32853 ft | 540 kts | 45° |
| 2026-05-03 21:39 | 54.97345 | -66.50140 | 32853 ft | 540 kts | 45° |
| 2026-05-03 21:39 | 55.02829 | -66.41313 | 32856 ft | 540 kts | 45° |
| 2026-05-03 21:40 | 55.08363 | -66.32410 | 32852 ft | 540 kts | 45° |
| 2026-05-03 21:40 | 55.13899 | -66.23473 | 32857 ft | 542 kts | 45° |
| 2026-05-03 21:41 | 55.19403 | -66.14545 | 32869 ft | 543 kts | 45° |
| 2026-05-03 21:41 | 55.24952 | -66.05505 | 32848 ft | 544 kts | 45° |
| 2026-05-03 21:42 | 55.30491 | -65.96444 | 32866 ft | 544 kts | 45° |
| 2026-05-03 21:42 | 55.36032 | -65.87343 | 32844 ft | 543 kts | 45° |
| 2026-05-03 21:43 | 55.41505 | -65.78320 | 32835 ft | 542 kts | 46° |
| 2026-05-03 21:43 | 55.47005 | -65.69216 | 32853 ft | 542 kts | 46° |
| 2026-05-03 21:44 | 55.52492 | -65.60095 | 32854 ft | 541 kts | 46° |
| 2026-05-03 21:44 | 55.57975 | -65.50944 | 32851 ft | 541 kts | 46° |
| 2026-05-03 21:45 | 55.63402 | -65.41852 | 32843 ft | 540 kts | 46° |
| 2026-05-03 21:45 | 55.68861 | -65.32668 | 32857 ft | 540 kts | 46° |
| 2026-05-03 21:46 | 55.74304 | -65.23474 | 32851 ft | 539 kts | 46° |
| 2026-05-03 21:46 | 55.79711 | -65.14303 | 32853 ft | 539 kts | 46° |
| 2026-05-03 21:47 | 55.85140 | -65.05059 | 32852 ft | 539 kts | 46° |
| 2026-05-03 21:47 | 55.90531 | -64.95841 | 32844 ft | 539 kts | 46° |
| 2026-05-03 21:48 | 55.95938 | -64.86556 | 32836 ft | 538 kts | 46° |
| 2026-05-03 21:48 | 56.01303 | -64.77309 | 32855 ft | 539 kts | 46° |
| 2026-05-03 21:49 | 56.06716 | -64.67939 | 32862 ft | 541 kts | 46° |
| 2026-05-03 21:49 | 56.12096 | -64.58589 | 32866 ft | 542 kts | 46° |
| 2026-05-03 21:50 | 56.17526 | -64.49112 | 32865 ft | 543 kts | 46° |
| 2026-05-03 21:50 | 56.22926 | -64.39650 | 32863 ft | 543 kts | 47° |
| 2026-05-03 21:51 | 56.28335 | -64.30133 | 32858 ft | 543 kts | 47° |
| 2026-05-03 21:51 | 56.33720 | -64.20616 | 32861 ft | 542 kts | 47° |
| 2026-05-03 21:52 | 56.39063 | -64.11136 | 32865 ft | 540 kts | 47° |
| 2026-05-03 21:52 | 56.44420 | -64.01590 | 32873 ft | 539 kts | 47° |
| 2026-05-03 21:53 | 56.49751 | -63.92050 | 32877 ft | 539 kts | 47° |
| 2026-05-03 21:53 | 56.55043 | -63.82541 | 32867 ft | 538 kts | 47° |
| 2026-05-03 21:54 | 56.60353 | -63.72961 | 32879 ft | 536 kts | 47° |
| 2026-05-03 21:54 | 56.65601 | -63.63451 | 32875 ft | 535 kts | 47° |
| 2026-05-03 21:55 | 56.70883 | -63.53839 | 32879 ft | 534 kts | 47° |
| 2026-05-03 21:55 | 56.76128 | -63.44255 | 32879 ft | 533 kts | 47° |
| 2026-05-03 21:56 | 56.81322 | -63.34727 | 32831 ft | 531 kts | 47° |
| 2026-05-03 21:56 | 56.86524 | -63.25140 | 32885 ft | 531 kts | 47° |
| 2026-05-03 21:57 | 56.91740 | -63.15486 | 32893 ft | 533 kts | 47° |
| 2026-05-03 21:57 | 56.96930 | -63.05842 | 32891 ft | 534 kts | 47° |
| 2026-05-03 21:58 | 57.02149 | -62.96105 | 32885 ft | 533 kts | 47° |
| 2026-05-03 21:58 | 57.07338 | -62.86381 | 32886 ft | 531 kts | 47° |
| 2026-05-03 21:59 | 57.12471 | -62.76718 | 32891 ft | 529 kts | 47° |
| 2026-05-03 21:59 | 57.17615 | -62.66997 | 32873 ft | 528 kts | 48° |
| 2026-05-03 22:00 | 57.22712 | -62.57371 | 32875 ft | 526 kts | 47° |
| 2026-05-03 22:00 | 57.27884 | -62.47782 | 32989 ft | 528 kts | 47° |
| 2026-05-03 22:01 | 57.30481 | -62.42978 | 33351 ft | 526 kts | 47° |
| 2026-05-03 22:01 | 57.33071 | -62.38177 | 33758 ft | 524 kts | 47° |
| 2026-05-03 22:01 | 57.35634 | -62.33404 | 34030 ft | 523 kts | 47° |
| 2026-05-03 22:01 | 57.38172 | -62.28661 | 34249 ft | 523 kts | 47° |
| 2026-05-03 22:02 | 57.40745 | -62.23838 | 34537 ft | 521 kts | 48° |
| 2026-05-03 22:02 | 57.43292 | -62.19052 | 34772 ft | 520 kts | 48° |
| 2026-05-03 22:02 | 57.48365 | -62.09475 | 34859 ft | 523 kts | 48° |
| 2026-05-03 22:03 | 57.53456 | -61.99830 | 34866 ft | 521 kts | 48° |
| 2026-05-03 22:03 | 57.58510 | -61.90216 | 34868 ft | 519 kts | 48° |
| 2026-05-03 22:04 | 57.63544 | -61.80601 | 34863 ft | 516 kts | 48° |
| 2026-05-03 22:04 | 57.68551 | -61.70996 | 34872 ft | 515 kts | 49° |
| 2026-05-03 22:05 | 57.72704 | -61.62997 | 34851 ft | 514 kts | 48° |
| 2026-05-03 22:05 | 57.77691 | -61.53355 | 34875 ft | 516 kts | 48° |
| 2026-05-03 22:06 | 57.82659 | -61.43711 | 34872 ft | 517 kts | 49° |
| 2026-05-03 22:06 | 57.87666 | -61.33949 | 34870 ft | 518 kts | 49° |
| 2026-05-03 22:07 | 57.92668 | -61.24154 | 34880 ft | 518 kts | 49° |
| 2026-05-03 22:07 | 57.97652 | -61.14354 | 34877 ft | 518 kts | 49° |
| 2026-05-03 22:08 | 58.02603 | -61.04577 | 34863 ft | 517 kts | 49° |
| 2026-05-03 22:08 | 58.07559 | -60.94748 | 34869 ft | 515 kts | 49° |
| 2026-05-03 22:09 | 58.12504 | -60.84898 | 34869 ft | 514 kts | 50° |
| 2026-05-03 22:10 | 58.19835 | -60.70215 | 34873 ft | 512 kts | 50° |
| 2026-05-03 22:10 | 58.24726 | -60.60368 | 34875 ft | 512 kts | 50° |
| 2026-05-03 22:11 | 58.29594 | -60.50523 | 34881 ft | 512 kts | 50° |
| 2026-05-03 22:11 | 58.34474 | -60.40613 | 34880 ft | 513 kts | 50° |
| 2026-05-03 22:12 | 58.39353 | -60.30659 | 34880 ft | 513 kts | 50° |
| 2026-05-03 22:12 | 58.44194 | -60.20743 | 34865 ft | 513 kts | 50° |
| 2026-05-03 22:13 | 58.49061 | -60.10731 | 34878 ft | 512 kts | 50° |
| 2026-05-03 22:13 | 58.53870 | -60.00794 | 34881 ft | 511 kts | 50° |
| 2026-05-03 22:14 | 58.58697 | -59.90775 | 34882 ft | 510 kts | 51° |
| 2026-05-03 22:14 | 58.63511 | -59.80739 | 34880 ft | 510 kts | 51° |
| 2026-05-03 22:15 | 58.68303 | -59.70706 | 34891 ft | 508 kts | 51° |
| 2026-05-03 22:15 | 58.73050 | -59.60722 | 34893 ft | 508 kts | 51° |
| 2026-05-03 22:16 | 58.77827 | -59.50632 | 34887 ft | 509 kts | 51° |
| 2026-05-03 22:16 | 58.82566 | -59.40579 | 34890 ft | 509 kts | 51° |
| 2026-05-03 22:17 | 58.87342 | -59.30403 | 34879 ft | 509 kts | 51° |
| 2026-05-03 22:17 | 58.92061 | -59.20303 | 34886 ft | 508 kts | 51° |
| 2026-05-03 22:18 | 58.96801 | -59.10113 | 34888 ft | 507 kts | 51° |
| 2026-05-03 22:18 | 59.01486 | -58.99996 | 34891 ft | 506 kts | 52° |
| 2026-05-03 22:19 | 59.06182 | -58.89811 | 34876 ft | 506 kts | 52° |
| 2026-05-03 22:19 | 59.10863 | -58.79614 | 34890 ft | 504 kts | 52° |
| 2026-05-03 22:20 | 59.15536 | -58.69390 | 34893 ft | 503 kts | 52° |
| 2026-05-03 22:20 | 59.20159 | -58.59227 | 34895 ft | 502 kts | 52° |
| 2026-05-03 22:21 | 59.24795 | -58.48992 | 34910 ft | 502 kts | 52° |
| 2026-05-03 22:21 | 59.29426 | -58.38723 | 34894 ft | 502 kts | 52° |
| 2026-05-03 22:22 | 59.34029 | -58.28470 | 34898 ft | 502 kts | 52° |
| 2026-05-03 22:22 | 59.38608 | -58.18222 | 34900 ft | 502 kts | 53° |
| 2026-05-03 22:23 | 59.43205 | -58.07894 | 34902 ft | 501 kts | 53° |
| 2026-05-03 22:23 | 59.47840 | -57.97622 | 34882 ft | 502 kts | 50° |
| 2026-05-03 22:24 | 59.52814 | -57.87974 | 34911 ft | 502 kts | 47° |
| 2026-05-03 22:24 | 59.57852 | -57.78554 | 34914 ft | 501 kts | 47° |
| 2026-05-03 22:25 | 59.62886 | -57.69019 | 34918 ft | 500 kts | 48° |
| 2026-05-03 22:25 | 59.67853 | -57.59455 | 34907 ft | 500 kts | 48° |
| 2026-05-03 22:26 | 59.72843 | -57.49761 | 34913 ft | 500 kts | 48° |
| 2026-05-03 22:26 | 59.77790 | -57.40108 | 34921 ft | 500 kts | 48° |
| 2026-05-03 22:27 | 59.82724 | -57.30444 | 34927 ft | 500 kts | 48° |
| 2026-05-03 22:27 | 59.87687 | -57.20684 | 34931 ft | 500 kts | 48° |
| 2026-05-03 22:28 | 59.92638 | -57.10908 | 34926 ft | 500 kts | 48° |
| 2026-05-03 22:28 | 59.97615 | -57.01035 | 34937 ft | 499 kts | 48° |
| 2026-05-03 22:29 | 60.02438 | -56.91424 | 34941 ft | 498 kts | 48° |
| 2026-05-03 22:29 | 60.07338 | -56.81616 | 34949 ft | 497 kts | 49° |
| 2026-05-03 22:30 | 60.12221 | -56.71797 | 34951 ft | 497 kts | 49° |
| 2026-05-03 22:30 | 60.17087 | -56.61971 | 34947 ft | 496 kts | 48° |
| 2026-05-03 22:31 | 60.21945 | -56.52116 | 34964 ft | 497 kts | 48° |
| 2026-05-03 22:31 | 60.26783 | -56.42258 | 34964 ft | 497 kts | 49° |
| 2026-05-03 22:32 | 60.31639 | -56.32319 | 34978 ft | 498 kts | 49° |
| 2026-05-03 22:32 | 60.36501 | -56.22323 | 34976 ft | 498 kts | 49° |
| 2026-05-03 22:33 | 60.41362 | -56.12283 | 34983 ft | 499 kts | 49° |
| 2026-05-03 22:33 | 60.46191 | -56.02265 | 34985 ft | 498 kts | 49° |
| 2026-05-03 22:34 | 60.51029 | -55.92181 | 34983 ft | 498 kts | 49° |
| 2026-05-03 22:34 | 60.55864 | -55.82058 | 34983 ft | 498 kts | 49° |
| 2026-05-03 22:35 | 60.60686 | -55.71917 | 34996 ft | 498 kts | 49° |
| 2026-05-03 22:35 | 60.65460 | -55.61831 | 35008 ft | 498 kts | 49° |
| 2026-05-03 22:36 | 60.70260 | -55.51642 | 35008 ft | 498 kts | 49° |
| 2026-05-03 22:36 | 60.75066 | -55.41393 | 35016 ft | 498 kts | 49° |
| 2026-05-03 22:37 | 60.79832 | -55.31180 | 35000 ft | 498 kts | 49° |
| 2026-05-03 22:37 | 60.84592 | -55.20935 | 35024 ft | 498 kts | 49° |
| 2026-05-03 22:38 | 60.89373 | -55.10599 | 35030 ft | 499 kts | 49° |
| 2026-05-03 22:38 | 60.94160 | -55.00201 | 35035 ft | 500 kts | 49° |
| 2026-05-03 22:39 | 60.98941 | -54.89768 | 35037 ft | 501 kts | 49° |
| 2026-05-03 22:39 | 61.03687 | -54.79362 | 35036 ft | 501 kts | 49° |
| 2026-05-03 22:40 | 61.08465 | -54.68835 | 35049 ft | 502 kts | 49° |
| 2026-05-03 22:40 | 61.13230 | -54.58286 | 35055 ft | 502 kts | 49° |
| 2026-05-03 22:41 | 61.18003 | -54.47672 | 35064 ft | 502 kts | 49° |
| 2026-05-03 22:41 | 61.22727 | -54.37115 | 35050 ft | 502 kts | 49° |
| 2026-05-03 22:42 | 61.27481 | -54.26440 | 35076 ft | 502 kts | 49° |
| 2026-05-03 22:42 | 61.32226 | -54.15735 | 35079 ft | 503 kts | 49° |
| 2026-05-03 22:43 | 61.36965 | -54.04993 | 35091 ft | 504 kts | 49° |
| 2026-05-03 22:43 | 61.41705 | -53.94196 | 35086 ft | 504 kts | 49° |
| 2026-05-03 22:44 | 61.46406 | -53.83434 | 35089 ft | 504 kts | 49° |
| 2026-05-03 22:44 | 61.51129 | -53.72571 | 35094 ft | 504 kts | 49° |
| 2026-05-03 22:45 | 61.55845 | -53.61673 | 35100 ft | 504 kts | 49° |
| 2026-05-03 22:45 | 61.60553 | -53.50737 | 35106 ft | 504 kts | 49° |
| 2026-05-03 22:46 | 61.65256 | -53.39760 | 35099 ft | 504 kts | 49° |
| 2026-05-03 22:46 | 61.69944 | -53.28765 | 35114 ft | 504 kts | 49° |
| 2026-05-03 22:47 | 61.74586 | -53.17823 | 35108 ft | 503 kts | 50° |
| 2026-05-03 22:47 | 61.79249 | -53.06778 | 35116 ft | 503 kts | 50° |
| 2026-05-03 22:48 | 61.83900 | -52.95707 | 35117 ft | 503 kts | 50° |
| 2026-05-03 22:48 | 61.88535 | -52.84619 | 35127 ft | 502 kts | 50° |
| 2026-05-03 22:49 | 61.93155 | -52.73511 | 35122 ft | 502 kts | 50° |
| 2026-05-03 22:49 | 61.97767 | -52.62369 | 35129 ft | 501 kts | 50° |
| 2026-05-03 22:50 | 62.02333 | -52.51283 | 35127 ft | 501 kts | 50° |
| 2026-05-03 22:50 | 62.06919 | -52.40092 | 35136 ft | 501 kts | 50° |
| 2026-05-03 22:51 | 62.11496 | -52.28867 | 35137 ft | 501 kts | 50° |
| 2026-05-03 22:51 | 62.16066 | -52.17604 | 35138 ft | 501 kts | 50° |
| 2026-05-03 22:52 | 62.20631 | -52.06296 | 35142 ft | 501 kts | 50° |
| 2026-05-03 22:52 | 62.25182 | -51.94965 | 35149 ft | 501 kts | 50° |
| 2026-05-03 22:53 | 62.29729 | -51.83586 | 35146 ft | 501 kts | 50° |
| 2026-05-03 22:53 | 62.34239 | -51.72243 | 35151 ft | 502 kts | 50° |
| 2026-05-03 22:54 | 62.38768 | -51.60796 | 35154 ft | 502 kts | 50° |
| 2026-05-03 22:54 | 62.43289 | -51.49310 | 35154 ft | 502 kts | 50° |
| 2026-05-03 22:55 | 62.47041 | -51.39731 | 35157 ft | 502 kts | 51° |
| 2026-05-03 22:55 | 62.51551 | -51.28166 | 35159 ft | 502 kts | 51° |
| 2026-05-03 22:56 | 62.56050 | -51.16568 | 35171 ft | 502 kts | 51° |
| 2026-05-03 22:56 | 62.60536 | -51.04942 | 35164 ft | 502 kts | 51° |
| 2026-05-03 22:57 | 62.65016 | -50.93274 | 35165 ft | 502 kts | 51° |
| 2026-05-03 22:57 | 62.69485 | -50.81573 | 35167 ft | 502 kts | 51° |
| 2026-05-03 22:58 | 62.73912 | -50.69920 | 35165 ft | 503 kts | 51° |
| 2026-05-03 22:58 | 62.78370 | -50.58125 | 35171 ft | 503 kts | 51° |
| 2026-05-03 22:59 | 62.82821 | -50.46289 | 35159 ft | 504 kts | 51° |
| 2026-05-03 22:59 | 62.87244 | -50.34464 | 35175 ft | 504 kts | 51° |
| 2026-05-03 23:00 | 62.91680 | -50.22538 | 35170 ft | 505 kts | 51° |
| 2026-05-03 23:00 | 62.96114 | -50.10560 | 35167 ft | 506 kts | 51° |
| 2026-05-03 23:01 | 63.00433 | -49.98300 | 35163 ft | 506 kts | 57° |
| 2026-05-03 23:01 | 63.03923 | -49.84838 | 35176 ft | 506 kts | 62° |
| 2026-05-03 23:02 | 63.07243 | -49.71176 | 35168 ft | 506 kts | 62° |
| 2026-05-03 23:02 | 63.10580 | -49.57483 | 35167 ft | 506 kts | 62° |
| 2026-05-03 23:03 | 63.13934 | -49.43792 | 35160 ft | 507 kts | 62° |
| 2026-05-03 23:03 | 63.17291 | -49.30059 | 35162 ft | 507 kts | 62° |
| 2026-05-03 23:04 | 63.20614 | -49.16380 | 35165 ft | 507 kts | 62° |
| 2026-05-03 23:04 | 63.23943 | -49.02581 | 35165 ft | 507 kts | 62° |
| 2026-05-03 23:05 | 63.27256 | -48.88751 | 35175 ft | 507 kts | 62° |
| 2026-05-03 23:05 | 63.30558 | -48.74882 | 35170 ft | 507 kts | 62° |
| 2026-05-03 23:06 | 63.33846 | -48.60987 | 35169 ft | 507 kts | 62° |
| 2026-05-03 23:06 | 63.37116 | -48.47078 | 35166 ft | 507 kts | 62° |
| 2026-05-03 23:07 | 63.40351 | -48.33226 | 35164 ft | 507 kts | 63° |
| 2026-05-03 23:07 | 63.43597 | -48.19240 | 35169 ft | 507 kts | 62° |
| 2026-05-03 23:08 | 63.46834 | -48.05199 | 35151 ft | 507 kts | 63° |
| 2026-05-03 23:08 | 63.50052 | -47.91152 | 35161 ft | 507 kts | 63° |
| 2026-05-03 23:09 | 63.53261 | -47.77053 | 35163 ft | 508 kts | 63° |
| 2026-05-03 23:09 | 63.56456 | -47.62923 | 35162 ft | 508 kts | 63° |
| 2026-05-03 23:10 | 63.59641 | -47.48742 | 35167 ft | 509 kts | 63° |
| 2026-05-03 23:10 | 63.62796 | -47.34598 | 35164 ft | 510 kts | 63° |
| 2026-05-03 23:11 | 63.65965 | -47.20303 | 35161 ft | 510 kts | 63° |
| 2026-05-03 23:11 | 63.69121 | -47.05965 | 35161 ft | 511 kts | 63° |
| 2026-05-03 23:12 | 63.72265 | -46.91589 | 35160 ft | 511 kts | 63° |
| 2026-05-03 23:12 | 63.75397 | -46.77167 | 35168 ft | 512 kts | 63° |
| 2026-05-03 23:13 | 63.78521 | -46.62682 | 35164 ft | 513 kts | 63° |
| 2026-05-03 23:13 | 63.81635 | -46.48147 | 35157 ft | 513 kts | 63° |
| 2026-05-03 23:14 | 63.84735 | -46.33575 | 35158 ft | 513 kts | 64° |
| 2026-05-03 23:14 | 63.87800 | -46.19070 | 35161 ft | 513 kts | 64° |
| 2026-05-03 23:15 | 63.90876 | -46.04410 | 35171 ft | 514 kts | 64° |
| 2026-05-03 23:15 | 63.93936 | -45.89723 | 35167 ft | 514 kts | 64° |
| 2026-05-03 23:16 | 63.96983 | -45.74992 | 35146 ft | 514 kts | 64° |
| 2026-05-03 23:16 | 64.00019 | -45.60216 | 35152 ft | 514 kts | 64° |
| 2026-05-03 23:17 | 64.03039 | -45.45406 | 35169 ft | 514 kts | 64° |
| 2026-05-03 23:17 | 64.06023 | -45.30669 | 35162 ft | 514 kts | 64° |
| 2026-05-03 23:18 | 64.09009 | -45.15819 | 35162 ft | 514 kts | 64° |
| 2026-05-03 23:18 | 64.11983 | -45.00921 | 35150 ft | 514 kts | 64° |
| 2026-05-03 23:19 | 64.14941 | -44.85993 | 35158 ft | 514 kts | 64° |
| 2026-05-03 23:19 | 64.17859 | -44.71158 | 35152 ft | 514 kts | 64° |
| 2026-05-03 23:20 | 64.20780 | -44.56202 | 35151 ft | 514 kts | 65° |
| 2026-05-03 23:20 | 64.23687 | -44.41207 | 35147 ft | 513 kts | 65° |
| 2026-05-03 23:21 | 64.26581 | -44.26167 | 35147 ft | 514 kts | 65° |
| 2026-05-03 23:21 | 64.29457 | -44.11112 | 35149 ft | 514 kts | 65° |
| 2026-05-03 23:22 | 64.33743 | -43.88458 | 35155 ft | 514 kts | 65° |
| 2026-05-03 23:22 | 64.36587 | -43.73287 | 35129 ft | 515 kts | 65° |
| 2026-05-03 23:23 | 64.39419 | -43.58060 | 35120 ft | 516 kts | 65° |
| 2026-05-03 23:23 | 64.42242 | -43.42773 | 35126 ft | 518 kts | 65° |
| 2026-05-03 23:24 | 64.45038 | -43.27508 | 35116 ft | 519 kts | 65° |
| 2026-05-03 23:24 | 64.47844 | -43.12071 | 35147 ft | 520 kts | 65° |
| 2026-05-03 23:25 | 64.50643 | -42.96553 | 35112 ft | 522 kts | 65° |
| 2026-05-03 23:25 | 64.53438 | -42.80935 | 35094 ft | 523 kts | 65° |
| 2026-05-03 23:26 | 64.56213 | -42.65296 | 35098 ft | 523 kts | 65° |
| 2026-05-03 23:26 | 64.58977 | -42.49598 | 35098 ft | 523 kts | 65° |
| 2026-05-03 23:27 | 64.61718 | -42.33900 | 35117 ft | 524 kts | 65° |
| 2026-05-03 23:27 | 64.64433 | -42.18232 | 35113 ft | 525 kts | 65° |
| 2026-05-03 23:28 | 64.67164 | -42.02346 | 35113 ft | 527 kts | 65° |
| 2026-05-03 23:28 | 64.69874 | -41.86446 | 35114 ft | 528 kts | 65° |
| 2026-05-03 23:29 | 64.72576 | -41.70459 | 35126 ft | 528 kts | 65° |
| 2026-05-03 23:29 | 64.75263 | -41.54419 | 35143 ft | 530 kts | 65° |
| 2026-05-03 23:30 | 64.77943 | -41.38294 | 35154 ft | 531 kts | 65° |
| 2026-05-03 23:30 | 64.80602 | -41.22159 | 35144 ft | 530 kts | 65° |
| 2026-05-03 23:31 | 64.83240 | -41.06003 | 35164 ft | 529 kts | 65° |
| 2026-05-03 23:31 | 64.85839 | -40.89953 | 35176 ft | 528 kts | 65° |
| 2026-05-03 23:32 | 64.88438 | -40.73771 | 35179 ft | 528 kts | 65° |
| 2026-05-03 23:32 | 64.91015 | -40.57583 | 35170 ft | 527 kts | 65° |
| 2026-05-03 23:33 | 64.93572 | -40.41377 | 35175 ft | 527 kts | 65° |
| 2026-05-03 23:33 | 64.96109 | -40.25161 | 35174 ft | 527 kts | 65° |
| 2026-05-03 23:34 | 64.98633 | -40.08890 | 35176 ft | 527 kts | 65° |
| 2026-05-03 23:34 | 65.01107 | -39.92536 | 35180 ft | 529 kts | 67° |
| 2026-05-03 23:35 | 65.03362 | -39.76025 | 35171 ft | 531 kts | 69° |
| 2026-05-03 23:35 | 65.05571 | -39.59296 | 35174 ft | 531 kts | 69° |
| 2026-05-03 23:36 | 65.07783 | -39.42590 | 35172 ft | 531 kts | 69° |
| 2026-05-03 23:36 | 65.10001 | -39.25844 | 35171 ft | 531 kts | 69° |
| 2026-05-03 23:37 | 65.12196 | -39.09161 | 35175 ft | 532 kts | 69° |
| 2026-05-03 23:37 | 65.14369 | -38.92463 | 35167 ft | 531 kts | 69° |
| 2026-05-03 23:38 | 65.16529 | -38.75666 | 35160 ft | 529 kts | 70° |
| 2026-05-03 23:38 | 65.18665 | -38.58886 | 35164 ft | 528 kts | 70° |
| 2026-05-03 23:39 | 65.20777 | -38.42128 | 35160 ft | 527 kts | 70° |
| 2026-05-03 23:39 | 65.22859 | -38.25420 | 35165 ft | 529 kts | 70° |
| 2026-05-03 23:40 | 65.24944 | -38.08539 | 35158 ft | 530 kts | 70° |
| 2026-05-03 23:40 | 65.27020 | -37.91549 | 35153 ft | 532 kts | 70° |
| 2026-05-03 23:41 | 65.29064 | -37.74617 | 35144 ft | 533 kts | 70° |
| 2026-05-03 23:41 | 65.31089 | -37.57658 | 35145 ft | 533 kts | 70° |
| 2026-05-03 23:42 | 65.33114 | -37.40522 | 35139 ft | 536 kts | 70° |
| 2026-05-03 23:42 | 65.35126 | -37.23304 | 35129 ft | 537 kts | 70° |
| 2026-05-03 23:43 | 65.36787 | -37.08934 | 35123 ft | 538 kts | 71° |
| 2026-05-03 23:43 | 65.38757 | -36.91715 | 35122 ft | 538 kts | 71° |
| 2026-05-03 23:44 | 65.41043 | -36.71483 | 35087 ft | 537 kts | 71° |
| 2026-05-03 23:44 | 65.42663 | -36.56977 | 35114 ft | 536 kts | 72° |
| 2026-05-03 23:45 | 65.44563 | -36.39769 | 35114 ft | 534 kts | 72° |
| 2026-05-03 23:45 | 65.46449 | -36.22490 | 35116 ft | 533 kts | 72° |
| 2026-05-03 23:46 | 65.48315 | -36.05200 | 35115 ft | 532 kts | 72° |
| 2026-05-03 23:46 | 65.50147 | -35.88015 | 35117 ft | 532 kts | 72° |
| 2026-05-03 23:47 | 65.51963 | -35.70776 | 35115 ft | 533 kts | 72° |
| 2026-05-03 23:47 | 65.53778 | -35.53333 | 35116 ft | 535 kts | 72° |
| 2026-05-03 23:48 | 65.55563 | -35.35969 | 35112 ft | 536 kts | 72° |
| 2026-05-03 23:48 | 65.57344 | -35.18412 | 35099 ft | 537 kts | 72° |
| 2026-05-03 23:49 | 65.59107 | -35.00810 | 35097 ft | 538 kts | 73° |
| 2026-05-03 23:49 | 65.60841 | -34.83262 | 35104 ft | 540 kts | 73° |
| 2026-05-03 23:50 | 65.62577 | -34.65484 | 35104 ft | 542 kts | 73° |
| 2026-05-03 23:50 | 65.64281 | -34.47792 | 35100 ft | 543 kts | 73° |
| 2026-05-03 23:51 | 65.65976 | -34.29948 | 35081 ft | 542 kts | 73° |
| 2026-05-03 23:51 | 65.67645 | -34.12122 | 35082 ft | 541 kts | 73° |
| 2026-05-03 23:52 | 65.69285 | -33.94376 | 35089 ft | 541 kts | 73° |
| 2026-05-03 23:52 | 65.70915 | -33.76495 | 35089 ft | 541 kts | 74° |
| 2026-05-03 23:53 | 65.72523 | -33.58616 | 35085 ft | 541 kts | 74° |
| 2026-05-03 23:53 | 65.74100 | -33.40806 | 35083 ft | 542 kts | 74° |
| 2026-05-03 23:54 | 65.75668 | -33.22849 | 35086 ft | 542 kts | 74° |
| 2026-05-03 23:54 | 65.77221 | -33.04801 | 35088 ft | 545 kts | 74° |
| 2026-05-03 23:55 | 65.78758 | -32.86679 | 35094 ft | 547 kts | 74° |
| 2026-05-03 23:55 | 65.80276 | -32.68483 | 35099 ft | 549 kts | 75° |
| 2026-05-03 23:56 | 65.81770 | -32.50306 | 35096 ft | 550 kts | 75° |
| 2026-05-03 23:56 | 65.83253 | -32.31959 | 35149 ft | 550 kts | 75° |
| 2026-05-03 23:57 | 65.84716 | -32.13568 | 35104 ft | 552 kts | 75° |
| 2026-05-03 23:57 | 65.86163 | -31.95115 | 35093 ft | 552 kts | 75° |
| 2026-05-03 23:58 | 65.87575 | -31.76764 | 35096 ft | 551 kts | 75° |
| 2026-05-03 23:58 | 65.88973 | -31.58303 | 35098 ft | 550 kts | 75° |
| 2026-05-03 23:59 | 65.90345 | -31.39870 | 35147 ft | 550 kts | 75° |
| 2026-05-03 23:59 | 65.91688 | -31.21535 | 35110 ft | 552 kts | 75° |
| 2026-05-04 00:00 | 65.93025 | -31.02961 | 35107 ft | 553 kts | 76° |
| 2026-05-04 00:00 | 65.94332 | -30.84461 | 35108 ft | 554 kts | 76° |
| 2026-05-04 00:01 | 65.95629 | -30.65753 | 35106 ft | 555 kts | 76° |
| 2026-05-04 00:01 | 65.96899 | -30.47075 | 35120 ft | 556 kts | 76° |
| 2026-05-04 00:02 | 65.98149 | -30.28420 | 35106 ft | 557 kts | 76° |
| 2026-05-04 00:02 | 65.99310 | -30.09554 | 35102 ft | 560 kts | 81° |
| 2026-05-04 00:03 | 65.99369 | -29.90408 | 35098 ft | 565 kts | 92° |
| 2026-05-04 00:03 | 65.98219 | -29.71262 | 35073 ft | 566 kts | 98° |
| 2026-05-04 00:04 | 65.96861 | -29.52326 | 35141 ft | 565 kts | 98° |
| 2026-05-04 00:04 | 65.95512 | -29.33237 | 35102 ft | 567 kts | 98° |
| 2026-05-04 00:05 | 65.94190 | -29.14233 | 35094 ft | 567 kts | 98° |
| 2026-05-04 00:05 | 65.92849 | -28.95145 | 35091 ft | 568 kts | 98° |
| 2026-05-04 00:06 | 65.91477 | -28.76028 | 35098 ft | 569 kts | 98° |
| 2026-05-04 00:06 | 65.90087 | -28.57065 | 35088 ft | 569 kts | 98° |
| 2026-05-04 00:07 | 65.88658 | -28.37964 | 35085 ft | 569 kts | 98° |
| 2026-05-04 00:07 | 65.87219 | -28.19029 | 35097 ft | 570 kts | 99° |
| 2026-05-04 00:08 | 65.85748 | -27.99990 | 35085 ft | 570 kts | 99° |
| 2026-05-04 00:08 | 65.84259 | -27.81048 | 35083 ft | 570 kts | 99° |
| 2026-05-04 00:09 | 65.82738 | -27.62033 | 35089 ft | 570 kts | 99° |
| 2026-05-04 00:09 | 65.81192 | -27.43019 | 35097 ft | 570 kts | 99° |
| 2026-05-04 00:10 | 65.79632 | -27.24142 | 35083 ft | 570 kts | 100° |
| 2026-05-04 00:10 | 65.78050 | -27.05315 | 35057 ft | 568 kts | 100° |
| 2026-05-04 00:11 | 65.76444 | -26.86487 | 35075 ft | 567 kts | 100° |
| 2026-05-04 00:11 | 65.74817 | -26.67703 | 35077 ft | 565 kts | 101° |
| 2026-05-04 00:12 | 65.73183 | -26.49125 | 35079 ft | 564 kts | 101° |
| 2026-05-04 00:12 | 65.71513 | -26.30426 | 35119 ft | 564 kts | 101° |
| 2026-05-04 00:13 | 65.69826 | -26.11818 | 35078 ft | 567 kts | 101° |
| 2026-05-04 00:13 | 65.68100 | -25.93041 | 35076 ft | 569 kts | 101° |
| 2026-05-04 00:14 | 65.66349 | -25.74287 | 35073 ft | 570 kts | 101° |
| 2026-05-04 00:14 | 65.64580 | -25.55606 | 35068 ft | 571 kts | 101° |
| 2026-05-04 00:15 | 65.62784 | -25.36910 | 35068 ft | 572 kts | 102° |
| 2026-05-04 00:15 | 65.60959 | -25.18178 | 35102 ft | 572 kts | 102° |
| 2026-05-04 00:16 | 65.59106 | -24.99426 | 35064 ft | 572 kts | 102° |
| 2026-05-04 00:16 | 65.57246 | -24.80847 | 35064 ft | 571 kts | 102° |
| 2026-05-04 00:17 | 65.55351 | -24.62177 | 35064 ft | 570 kts | 102° |
| 2026-05-04 00:17 | 65.53446 | -24.43668 | 35062 ft | 568 kts | 102° |
| 2026-05-04 00:18 | 65.51515 | -24.25144 | 35060 ft | 568 kts | 103° |
| 2026-05-04 00:18 | 65.49561 | -24.06650 | 35075 ft | 569 kts | 103° |
| 2026-05-04 00:19 | 65.47595 | -23.88284 | 35068 ft | 569 kts | 103° |
| 2026-05-04 00:19 | 65.45594 | -23.69812 | 35072 ft | 570 kts | 103° |
| 2026-05-04 00:20 | 65.43569 | -23.51368 | 35078 ft | 570 kts | 103° |
| 2026-05-04 00:20 | 65.41532 | -23.33038 | 35025 ft | 571 kts | 104° |
| 2026-05-04 00:21 | 65.39459 | -23.14627 | 35076 ft | 570 kts | 104° |
| 2026-05-04 00:21 | 65.37356 | -22.96164 | 35078 ft | 573 kts | 104° |
| 2026-05-04 00:22 | 65.35236 | -22.77783 | 35081 ft | 575 kts | 104° |
| 2026-05-04 00:22 | 65.33076 | -22.59284 | 35071 ft | 576 kts | 104° |
| 2026-05-04 00:23 | 65.30909 | -22.40947 | 35071 ft | 576 kts | 105° |
| 2026-05-04 00:23 | 65.28705 | -22.22516 | 35070 ft | 576 kts | 105° |
| 2026-05-04 00:24 | 65.26480 | -22.04127 | 35074 ft | 576 kts | 105° |
| 2026-05-04 00:24 | 65.24242 | -21.85855 | 35067 ft | 576 kts | 105° |
| 2026-05-04 00:25 | 65.21968 | -21.67488 | 35079 ft | 576 kts | 105° |
| 2026-05-04 00:25 | 65.19675 | -21.49184 | 35064 ft | 577 kts | 105° |
| 2026-05-04 00:26 | 65.17366 | -21.30961 | 35069 ft | 577 kts | 105° |
| 2026-05-04 00:26 | 65.15016 | -21.12626 | 35061 ft | 578 kts | 106° |
| 2026-05-04 00:27 | 65.12646 | -20.94344 | 35060 ft | 578 kts | 106° |
| 2026-05-04 00:27 | 65.10272 | -20.76226 | 35054 ft | 575 kts | 106° |
| 2026-05-04 00:28 | 65.07890 | -20.58240 | 35055 ft | 574 kts | 106° |
| 2026-05-04 00:28 | 65.05467 | -20.40142 | 35053 ft | 574 kts | 107° |
| 2026-05-04 00:29 | 65.03029 | -20.22132 | 35055 ft | 574 kts | 107° |
| 2026-05-04 00:29 | 65.00574 | -20.04160 | 35100 ft | 574 kts | 107° |
| 2026-05-04 00:30 | 64.97996 | -19.86305 | 35051 ft | 575 kts | 109° |
| 2026-05-04 00:30 | 64.95210 | -19.68669 | 34979 ft | 575 kts | 110° |
| 2026-05-04 00:31 | 64.92375 | -19.51010 | 35028 ft | 574 kts | 110° |
| 2026-05-04 00:31 | 64.89577 | -19.33479 | 35037 ft | 575 kts | 110° |
| 2026-05-04 00:32 | 64.86758 | -19.15830 | 35046 ft | 576 kts | 110° |
| 2026-05-04 00:32 | 64.84393 | -19.01144 | 35086 ft | 578 kts | 110° |
| 2026-05-04 00:33 | 64.80067 | -18.74622 | 35041 ft | 578 kts | 110° |
| 2026-05-04 00:34 | 64.77182 | -18.57152 | 35048 ft | 577 kts | 110° |
| 2026-05-04 00:34 | 64.74259 | -18.39621 | 35053 ft | 576 kts | 110° |
| 2026-05-04 00:35 | 64.71322 | -18.22155 | 35042 ft | 577 kts | 110° |
| 2026-05-04 00:35 | 64.68354 | -18.04664 | 35105 ft | 578 kts | 110° |
| 2026-05-04 00:36 | 64.65376 | -17.87274 | 35045 ft | 580 kts | 111° |
| 2026-05-04 00:36 | 64.62347 | -17.69757 | 35046 ft | 580 kts | 111° |
| 2026-05-04 00:37 | 64.59322 | -17.52411 | 35037 ft | 581 kts | 111° |
| 2026-05-04 00:37 | 64.56254 | -17.34976 | 34995 ft | 579 kts | 111° |
| 2026-05-04 00:38 | 64.53199 | -17.17770 | 35035 ft | 578 kts | 111° |
| 2026-05-04 00:38 | 64.50104 | -17.00491 | 35038 ft | 577 kts | 112° |
| 2026-05-04 00:39 | 64.47015 | -16.83398 | 35041 ft | 577 kts | 112° |
| 2026-05-04 00:39 | 64.43886 | -16.66229 | 35044 ft | 577 kts | 112° |
| 2026-05-04 00:40 | 64.40735 | -16.49086 | 35042 ft | 577 kts | 112° |
| 2026-05-04 00:40 | 64.37590 | -16.32128 | 34996 ft | 577 kts | 112° |
| 2026-05-04 00:41 | 64.34400 | -16.15074 | 35037 ft | 578 kts | 112° |
| 2026-05-04 00:41 | 64.31205 | -15.98134 | 35040 ft | 579 kts | 112° |
| 2026-05-04 00:42 | 64.27964 | -15.81096 | 35045 ft | 578 kts | 113° |
| 2026-05-04 00:42 | 64.24734 | -15.64254 | 35043 ft | 578 kts | 113° |
| 2026-05-04 00:43 | 64.21471 | -15.47385 | 35044 ft | 578 kts | 113° |
| 2026-05-04 00:43 | 64.18178 | -15.30501 | 35040 ft | 578 kts | 113° |
| 2026-05-04 00:44 | 64.14891 | -15.13787 | 35073 ft | 576 kts | 113° |
| 2026-05-04 00:44 | 64.11566 | -14.97020 | 35038 ft | 577 kts | 114° |
| 2026-05-04 00:45 | 64.08244 | -14.80396 | 35039 ft | 576 kts | 114° |
| 2026-05-04 00:45 | 64.04887 | -14.63733 | 35037 ft | 576 kts | 114° |
| 2026-05-04 00:46 | 64.01518 | -14.47149 | 35035 ft | 576 kts | 114° |
| 2026-05-04 00:46 | 63.98150 | -14.30701 | 35027 ft | 576 kts | 114° |
| 2026-05-04 00:47 | 63.94741 | -14.14185 | 35068 ft | 576 kts | 114° |
| 2026-05-04 00:47 | 63.91309 | -13.97688 | 35028 ft | 575 kts | 115° |
| 2026-05-04 00:48 | 63.87890 | -13.81383 | 35028 ft | 574 kts | 115° |
| 2026-05-04 00:48 | 63.84438 | -13.65049 | 35030 ft | 574 kts | 115° |
| 2026-05-04 00:49 | 63.80971 | -13.48769 | 35026 ft | 573 kts | 115° |
| 2026-05-04 00:49 | 63.77490 | -13.32549 | 35031 ft | 573 kts | 115° |
| 2026-05-04 00:50 | 63.74007 | -13.16450 | 35009 ft | 573 kts | 115° |
| 2026-05-04 00:50 | 63.70484 | -13.00283 | 35024 ft | 574 kts | 115° |
| 2026-05-04 00:51 | 63.66935 | -12.84115 | 35029 ft | 574 kts | 116° |
| 2026-05-04 00:51 | 63.63383 | -12.68061 | 35029 ft | 575 kts | 116° |
| 2026-05-04 00:52 | 63.59793 | -12.51959 | 35028 ft | 576 kts | 116° |
| 2026-05-04 00:52 | 63.56180 | -12.35872 | 35083 ft | 577 kts | 116° |
| 2026-05-04 00:53 | 63.52584 | -12.19983 | 34955 ft | 576 kts | 116° |
| 2026-05-04 00:53 | 63.48933 | -12.03974 | 35013 ft | 573 kts | 116° |
| 2026-05-04 00:54 | 63.45293 | -11.88123 | 35015 ft | 572 kts | 116° |
| 2026-05-04 00:54 | 63.41653 | -11.72392 | 35020 ft | 572 kts | 117° |
| 2026-05-04 00:55 | 63.37979 | -11.56625 | 35012 ft | 572 kts | 117° |
| 2026-05-04 00:55 | 63.34281 | -11.40874 | 35039 ft | 573 kts | 117° |
| 2026-05-04 00:56 | 63.30581 | -11.25227 | 35008 ft | 571 kts | 117° |
| 2026-05-04 00:56 | 63.26863 | -11.09619 | 34994 ft | 569 kts | 117° |
| 2026-05-04 00:57 | 63.23151 | -10.94142 | 35004 ft | 569 kts | 117° |
| 2026-05-04 00:57 | 63.19429 | -10.78734 | 35006 ft | 570 kts | 118° |
| 2026-05-04 00:58 | 63.15657 | -10.63228 | 35005 ft | 571 kts | 118° |
| 2026-05-04 00:58 | 63.11868 | -10.47760 | 35002 ft | 572 kts | 118° |
| 2026-05-04 00:59 | 63.08074 | -10.32384 | 34991 ft | 570 kts | 118° |
| 2026-05-04 00:59 | 63.04269 | -10.17057 | 34968 ft | 568 kts | 118° |
| 2026-05-04 01:00 | 63.00590 | -10.01735 | 34982 ft | 567 kts | 113° |
| 2026-05-04 01:00 | 62.97905 | -9.85554 | 34996 ft | 565 kts | 103° |
| 2026-05-04 01:01 | 62.95730 | -9.68895 | 35030 ft | 567 kts | 104° |
| 2026-05-04 01:01 | 62.93501 | -9.52260 | 34988 ft | 567 kts | 105° |
| 2026-05-04 01:02 | 62.91212 | -9.35677 | 34977 ft | 565 kts | 105° |
| 2026-05-04 01:02 | 62.88911 | -9.19278 | 34978 ft | 564 kts | 105° |
| 2026-05-04 01:03 | 62.86585 | -9.02846 | 34980 ft | 563 kts | 105° |
| 2026-05-04 01:03 | 62.84262 | -8.86566 | 34939 ft | 562 kts | 105° |
| 2026-05-04 01:04 | 62.81911 | -8.70236 | 34974 ft | 561 kts | 106° |
| 2026-05-04 01:04 | 62.79542 | -8.53943 | 34977 ft | 561 kts | 106° |
| 2026-05-04 01:05 | 62.77153 | -8.37667 | 34973 ft | 562 kts | 106° |
| 2026-05-04 01:05 | 62.74759 | -8.21513 | 34971 ft | 563 kts | 106° |
| 2026-05-04 01:06 | 62.72325 | -8.05237 | 34971 ft | 563 kts | 107° |
| 2026-05-04 01:06 | 62.69885 | -7.89077 | 34964 ft | 564 kts | 107° |
| 2026-05-04 01:07 | 62.67408 | -7.72825 | 34957 ft | 564 kts | 107° |
| 2026-05-04 01:07 | 62.64914 | -7.56608 | 34959 ft | 564 kts | 107° |
| 2026-05-04 01:08 | 62.62416 | -7.40514 | 34940 ft | 564 kts | 107° |
| 2026-05-04 01:08 | 62.59883 | -7.24344 | 34956 ft | 564 kts | 107° |
| 2026-05-04 01:09 | 62.57338 | -7.08244 | 34952 ft | 563 kts | 108° |
| 2026-05-04 01:09 | 62.54792 | -6.92278 | 34954 ft | 563 kts | 108° |
| 2026-05-04 01:10 | 62.52211 | -6.76229 | 34956 ft | 562 kts | 108° |
| 2026-05-04 01:10 | 62.49633 | -6.60346 | 34992 ft | 562 kts | 108° |
| 2026-05-04 01:11 | 62.47024 | -6.44410 | 34955 ft | 561 kts | 108° |
| 2026-05-04 01:11 | 62.44406 | -6.28562 | 34952 ft | 559 kts | 108° |
| 2026-05-04 01:12 | 62.41778 | -6.12783 | 34950 ft | 557 kts | 109° |
| 2026-05-04 01:12 | 62.39139 | -5.97076 | 34895 ft | 556 kts | 109° |
| 2026-05-04 01:13 | 62.36498 | -5.81489 | 34977 ft | 556 kts | 109° |
| 2026-05-04 01:13 | 62.33824 | -5.65829 | 34958 ft | 557 kts | 109° |
| 2026-05-04 01:14 | 62.31127 | -5.50176 | 34949 ft | 557 kts | 109° |
| 2026-05-04 01:14 | 62.28430 | -5.34650 | 34947 ft | 557 kts | 109° |
| 2026-05-04 01:15 | 62.25695 | -5.19034 | 34943 ft | 556 kts | 110° |
| 2026-05-04 01:15 | 62.22975 | -5.03626 | 34970 ft | 555 kts | 110° |
| 2026-05-04 01:16 | 62.20221 | -4.88154 | 34942 ft | 553 kts | 110° |
| 2026-05-04 01:16 | 62.17476 | -4.72854 | 34937 ft | 551 kts | 110° |
| 2026-05-04 01:17 | 62.14710 | -4.57560 | 34872 ft | 549 kts | 110° |
| 2026-05-04 01:17 | 62.11937 | -4.42353 | 34934 ft | 548 kts | 111° |
| 2026-05-04 01:18 | 62.09163 | -4.27247 | 34957 ft | 550 kts | 111° |
| 2026-05-04 01:18 | 62.06348 | -4.12045 | 34944 ft | 551 kts | 111° |
| 2026-05-04 01:19 | 62.03513 | -3.96849 | 34937 ft | 551 kts | 111° |
| 2026-05-04 01:19 | 62.00669 | -3.81727 | 34932 ft | 551 kts | 112° |
| 2026-05-04 01:20 | 61.97801 | -3.66593 | 34931 ft | 550 kts | 112° |
| 2026-05-04 01:20 | 61.94938 | -3.51589 | 34945 ft | 549 kts | 112° |
| 2026-05-04 01:21 | 61.92044 | -3.36552 | 34928 ft | 548 kts | 112° |
| 2026-05-04 01:21 | 61.89158 | -3.21663 | 34925 ft | 546 kts | 112° |
| 2026-05-04 01:22 | 61.86247 | -3.06747 | 34914 ft | 545 kts | 112° |
| 2026-05-04 01:22 | 61.83338 | -2.91970 | 34926 ft | 546 kts | 113° |
| 2026-05-04 01:23 | 61.80407 | -2.77178 | 34939 ft | 548 kts | 114° |
| 2026-05-04 01:23 | 61.77938 | -2.64806 | 34931 ft | 548 kts | 114° |
| 2026-05-04 01:24 | 61.74963 | -2.49994 | 34926 ft | 548 kts | 114° |
| 2026-05-04 01:24 | 61.71965 | -2.35180 | 34921 ft | 548 kts | 114° |
| 2026-05-04 01:25 | 61.68951 | -2.20387 | 34914 ft | 547 kts | 114° |
| 2026-05-04 01:25 | 61.65944 | -2.05741 | 34931 ft | 546 kts | 115° |
| 2026-05-04 01:26 | 61.62912 | -1.91076 | 34919 ft | 545 kts | 115° |
| 2026-05-04 01:26 | 61.59892 | -1.76571 | 34913 ft | 544 kts | 115° |
| 2026-05-04 01:27 | 61.56841 | -1.62019 | 34912 ft | 543 kts | 115° |
| 2026-05-04 01:27 | 61.53780 | -1.47524 | 34915 ft | 543 kts | 115° |
| 2026-05-04 01:28 | 61.50705 | -1.33063 | 34924 ft | 542 kts | 116° |
| 2026-05-04 01:28 | 61.47628 | -1.18688 | 34913 ft | 542 kts | 116° |
| 2026-05-04 01:29 | 61.44530 | -1.04321 | 34913 ft | 542 kts | 116° |
| 2026-05-04 01:29 | 61.41424 | -0.90011 | 34912 ft | 541 kts | 116° |
| 2026-05-04 01:30 | 61.38293 | -0.75685 | 34910 ft | 541 kts | 116° |
| 2026-05-04 01:30 | 61.35148 | -0.61391 | 34910 ft | 541 kts | 116° |
| 2026-05-04 01:31 | 61.32007 | -0.47211 | 34872 ft | 541 kts | 116° |
| 2026-05-04 01:31 | 61.28830 | -0.32964 | 34891 ft | 542 kts | 116° |
| 2026-05-04 01:32 | 61.25641 | -0.18756 | 34912 ft | 543 kts | 117° |
| 2026-05-04 01:32 | 61.22433 | -0.04549 | 34907 ft | 543 kts | 117° |
| 2026-05-04 01:33 | 61.19014 | 0.09349 | 34919 ft | 542 kts | 121° |
| 2026-05-04 01:33 | 61.15364 | 0.23015 | 34902 ft | 542 kts | 122° |
| 2026-05-04 01:34 | 61.11690 | 0.36661 | 34912 ft | 541 kts | 121° |
| 2026-05-04 01:34 | 61.08029 | 0.50282 | 34900 ft | 541 kts | 121° |
| 2026-05-04 01:35 | 61.04395 | 0.63778 | 34896 ft | 541 kts | 122° |
| 2026-05-04 01:35 | 61.00733 | 0.77303 | 34898 ft | 539 kts | 122° |
| 2026-05-04 01:36 | 60.97042 | 0.90845 | 34892 ft | 539 kts | 122° |
| 2026-05-04 01:36 | 60.93377 | 1.04208 | 34897 ft | 539 kts | 122° |
| 2026-05-04 01:37 | 60.89670 | 1.17643 | 34892 ft | 539 kts | 122° |
| 2026-05-04 01:37 | 60.85948 | 1.31054 | 34890 ft | 539 kts | 122° |
| 2026-05-04 01:38 | 60.82244 | 1.44323 | 34897 ft | 539 kts | 123° |
| 2026-05-04 01:38 | 60.78505 | 1.57637 | 34891 ft | 538 kts | 123° |
| 2026-05-04 01:39 | 60.74767 | 1.70868 | 34889 ft | 537 kts | 123° |
| 2026-05-04 01:39 | 60.71014 | 1.84079 | 34884 ft | 536 kts | 123° |
| 2026-05-04 01:40 | 60.67252 | 1.97244 | 34883 ft | 536 kts | 123° |
| 2026-05-04 01:40 | 60.63498 | 2.10308 | 34889 ft | 535 kts | 123° |
| 2026-05-04 01:41 | 60.59724 | 2.23365 | 34873 ft | 534 kts | 123° |
| 2026-05-04 01:41 | 60.55959 | 2.36316 | 34869 ft | 534 kts | 123° |
| 2026-05-04 01:42 | 60.52167 | 2.49285 | 34851 ft | 533 kts | 124° |
| 2026-05-04 01:42 | 60.48367 | 2.62210 | 34855 ft | 533 kts | 124° |
| 2026-05-04 01:43 | 60.44581 | 2.75017 | 34844 ft | 532 kts | 124° |
| 2026-05-04 01:43 | 60.40761 | 2.87866 | 34833 ft | 529 kts | 124° |
| 2026-05-04 01:44 | 60.36950 | 3.00617 | 34853 ft | 528 kts | 124° |
| 2026-05-04 01:44 | 60.33163 | 3.13212 | 34857 ft | 527 kts | 124° |
| 2026-05-04 01:45 | 60.29335 | 3.25874 | 34859 ft | 527 kts | 124° |
| 2026-05-04 01:45 | 60.23596 | 3.44730 | 34960 ft | 528 kts | 125° |
| 2026-05-04 01:46 | 60.21666 | 3.51036 | 35238 ft | 528 kts | 125° |
| 2026-05-04 01:46 | 60.19743 | 3.57304 | 35554 ft | 526 kts | 125° |
| 2026-05-04 01:46 | 60.17816 | 3.63570 | 35882 ft | 524 kts | 125° |
| 2026-05-04 01:46 | 60.15924 | 3.69706 | 36183 ft | 523 kts | 125° |
| 2026-05-04 01:47 | 60.13999 | 3.75927 | 36439 ft | 523 kts | 125° |
| 2026-05-04 01:47 | 60.12074 | 3.82133 | 36660 ft | 524 kts | 125° |
| 2026-05-04 01:47 | 60.10141 | 3.88347 | 36774 ft | 524 kts | 125° |
| 2026-05-04 01:47 | 60.08200 | 3.94572 | 36823 ft | 524 kts | 125° |
| 2026-05-04 01:48 | 60.04367 | 4.06819 | 36869 ft | 519 kts | 125° |
| 2026-05-04 01:48 | 60.00535 | 4.19000 | 36877 ft | 514 kts | 125° |
| 2026-05-04 01:49 | 59.96721 | 4.31057 | 36885 ft | 512 kts | 126° |
| 2026-05-04 01:49 | 59.92901 | 4.43063 | 36895 ft | 512 kts | 126° |
| 2026-05-04 01:50 | 59.89074 | 4.55031 | 36901 ft | 514 kts | 126° |
| 2026-05-04 01:50 | 59.85228 | 4.67001 | 36905 ft | 516 kts | 126° |
| 2026-05-04 01:51 | 59.81337 | 4.79051 | 36905 ft | 518 kts | 126° |
| 2026-05-04 01:51 | 59.77425 | 4.91105 | 36897 ft | 518 kts | 126° |
| 2026-05-04 01:52 | 59.73512 | 5.03099 | 36891 ft | 517 kts | 126° |
| 2026-05-04 01:52 | 59.69614 | 5.14986 | 36904 ft | 516 kts | 126° |
| 2026-05-04 01:53 | 59.65689 | 5.26894 | 36895 ft | 515 kts | 127° |
| 2026-05-04 01:53 | 59.61769 | 5.38725 | 36902 ft | 513 kts | 127° |
| 2026-05-04 01:54 | 59.57872 | 5.50431 | 36908 ft | 512 kts | 127° |
| 2026-05-04 01:54 | 59.53954 | 5.62135 | 36914 ft | 511 kts | 127° |
| 2026-05-04 01:55 | 59.50028 | 5.73807 | 36905 ft | 510 kts | 127° |
| 2026-05-04 01:55 | 59.46115 | 5.85384 | 36870 ft | 510 kts | 127° |
| 2026-05-04 01:56 | 59.42170 | 5.96999 | 36916 ft | 509 kts | 127° |
| 2026-05-04 01:56 | 59.38218 | 6.08579 | 36913 ft | 510 kts | 128° |
| 2026-05-04 01:57 | 59.34279 | 6.20057 | 36913 ft | 511 kts | 128° |
| 2026-05-04 01:57 | 59.30296 | 6.31612 | 36912 ft | 511 kts | 128° |
| 2026-05-04 01:58 | 59.26307 | 6.43131 | 36915 ft | 512 kts | 128° |
| 2026-05-04 01:58 | 59.22292 | 6.54665 | 36911 ft | 512 kts | 128° |
| 2026-05-04 01:59 | 59.18266 | 6.66172 | 36913 ft | 513 kts | 128° |
| 2026-05-04 01:59 | 59.14250 | 6.77598 | 36904 ft | 513 kts | 128° |
| 2026-05-04 02:00 | 59.10201 | 6.89063 | 36907 ft | 511 kts | 128° |
| 2026-05-04 02:00 | 59.06168 | 7.00427 | 36888 ft | 511 kts | 128° |
| 2026-05-04 02:01 | 59.02141 | 7.11718 | 36888 ft | 510 kts | 129° |
| 2026-05-04 02:01 | 58.98093 | 7.23016 | 36864 ft | 509 kts | 129° |
| 2026-05-04 02:02 | 58.94041 | 7.34269 | 36861 ft | 508 kts | 129° |
| 2026-05-04 02:02 | 58.89982 | 7.45487 | 36847 ft | 507 kts | 129° |
| 2026-05-04 02:03 | 58.85921 | 7.56659 | 36849 ft | 507 kts | 129° |
| 2026-05-04 02:03 | 58.81884 | 7.67714 | 36830 ft | 506 kts | 129° |
| 2026-05-04 02:04 | 58.77809 | 7.78822 | 36811 ft | 504 kts | 129° |
| 2026-05-04 02:04 | 58.73777 | 7.89760 | 36825 ft | 503 kts | 129° |
| 2026-05-04 02:05 | 58.69695 | 8.00780 | 36823 ft | 504 kts | 129° |
| 2026-05-04 02:05 | 58.65637 | 8.11684 | 36822 ft | 504 kts | 130° |
| 2026-05-04 02:06 | 58.61531 | 8.22673 | 36807 ft | 505 kts | 130° |
| 2026-05-04 02:06 | 58.57449 | 8.33543 | 36796 ft | 505 kts | 130° |
| 2026-05-04 02:07 | 58.53336 | 8.44446 | 36799 ft | 505 kts | 130° |
| 2026-05-04 02:07 | 58.49204 | 8.55351 | 36788 ft | 505 kts | 130° |
| 2026-05-04 02:08 | 58.45767 | 8.64382 | 36794 ft | 505 kts | 130° |
| 2026-05-04 02:08 | 58.41611 | 8.75257 | 36773 ft | 505 kts | 130° |
| 2026-05-04 02:09 | 58.37479 | 8.86022 | 36775 ft | 504 kts | 131° |
| 2026-05-04 02:09 | 58.33329 | 8.96786 | 36775 ft | 503 kts | 131° |
| 2026-05-04 02:10 | 58.29199 | 9.07448 | 36772 ft | 503 kts | 131° |
| 2026-05-04 02:10 | 58.25038 | 9.18141 | 36784 ft | 502 kts | 131° |
| 2026-05-04 02:11 | 58.20875 | 9.28794 | 36756 ft | 502 kts | 131° |
| 2026-05-04 02:11 | 58.16725 | 9.39365 | 36782 ft | 501 kts | 131° |
| 2026-05-04 02:12 | 58.12558 | 9.49937 | 36780 ft | 501 kts | 131° |
| 2026-05-04 02:12 | 58.08367 | 9.60491 | 36780 ft | 499 kts | 133° |
| 2026-05-04 02:13 | 58.03721 | 9.70120 | 36796 ft | 494 kts | 139° |
| 2026-05-04 02:13 | 57.98921 | 9.79347 | 36789 ft | 495 kts | 140° |
| 2026-05-04 02:14 | 57.94098 | 9.88643 | 36787 ft | 495 kts | 139° |
| 2026-05-04 02:14 | 57.89323 | 9.97883 | 36793 ft | 495 kts | 139° |
| 2026-05-04 02:15 | 57.84515 | 10.07173 | 36797 ft | 495 kts | 139° |
| 2026-05-04 02:15 | 57.79729 | 10.16382 | 36797 ft | 495 kts | 140° |
| 2026-05-04 02:16 | 57.74917 | 10.25600 | 36792 ft | 494 kts | 140° |
| 2026-05-04 02:16 | 57.70105 | 10.34777 | 36781 ft | 494 kts | 140° |
| 2026-05-04 02:17 | 57.65289 | 10.43926 | 36802 ft | 493 kts | 140° |
| 2026-05-04 02:17 | 57.60467 | 10.53049 | 36803 ft | 493 kts | 140° |
| 2026-05-04 02:18 | 57.55655 | 10.62116 | 36810 ft | 493 kts | 140° |
| 2026-05-04 02:18 | 57.50826 | 10.71179 | 36811 ft | 493 kts | 140° |
| 2026-05-04 02:19 | 57.45982 | 10.80236 | 36779 ft | 493 kts | 140° |
| 2026-05-04 02:19 | 57.41147 | 10.89240 | 36799 ft | 492 kts | 140° |
| 2026-05-04 02:20 | 57.36328 | 10.98179 | 36811 ft | 492 kts | 140° |
| 2026-05-04 02:20 | 57.31474 | 11.07146 | 36814 ft | 492 kts | 140° |
| 2026-05-04 02:21 | 57.26641 | 11.16045 | 36814 ft | 492 kts | 140° |
| 2026-05-04 02:21 | 57.21770 | 11.24957 | 36813 ft | 491 kts | 142° |
| 2026-05-04 02:22 | 57.16503 | 11.32697 | 36817 ft | 483 kts | 150° |
| 2026-05-04 02:22 | 57.10951 | 11.39742 | 36820 ft | 483 kts | 151° |
| 2026-05-04 02:23 | 57.05413 | 11.46792 | 36800 ft | 484 kts | 150° |
| 2026-05-04 02:23 | 56.99917 | 11.53829 | 36815 ft | 484 kts | 150° |
| 2026-05-04 02:24 | 56.94378 | 11.60921 | 36818 ft | 484 kts | 150° |
| 2026-05-04 02:24 | 56.88881 | 11.67932 | 36814 ft | 484 kts | 150° |
| 2026-05-04 02:25 | 56.83348 | 11.74961 | 36805 ft | 484 kts | 150° |
| 2026-05-04 02:25 | 56.77813 | 11.81967 | 36800 ft | 482 kts | 151° |
| 2026-05-04 02:26 | 56.72299 | 11.88918 | 36811 ft | 481 kts | 151° |
| 2026-05-04 02:26 | 56.66785 | 11.95845 | 36811 ft | 481 kts | 151° |
| 2026-05-04 02:27 | 56.61302 | 12.02707 | 36808 ft | 480 kts | 151° |
| 2026-05-04 02:27 | 56.55808 | 12.09558 | 36808 ft | 480 kts | 151° |
| 2026-05-04 02:28 | 56.50297 | 12.16407 | 36781 ft | 480 kts | 151° |
| 2026-05-04 02:28 | 56.44810 | 12.23203 | 36799 ft | 478 kts | 151° |
| 2026-05-04 02:29 | 56.39315 | 12.29983 | 36801 ft | 477 kts | 151° |
| 2026-05-04 02:29 | 56.33847 | 12.36707 | 36799 ft | 477 kts | 151° |
| 2026-05-04 02:30 | 56.28349 | 12.43443 | 36797 ft | 477 kts | 151° |
| 2026-05-04 02:30 | 56.22857 | 12.50152 | 36817 ft | 476 kts | 152° |
| 2026-05-04 02:31 | 56.17419 | 12.56893 | 36808 ft | 478 kts | 148° |
| 2026-05-04 02:31 | 56.12452 | 12.64989 | 36788 ft | 484 kts | 141° |
| 2026-05-04 02:32 | 56.07677 | 12.73493 | 36800 ft | 484 kts | 141° |
| 2026-05-04 02:32 | 56.02880 | 12.81951 | 36805 ft | 483 kts | 141° |
| 2026-05-04 02:33 | 55.98064 | 12.90349 | 36806 ft | 483 kts | 141° |
| 2026-05-04 02:33 | 55.93268 | 12.98662 | 36806 ft | 484 kts | 141° |
| 2026-05-04 02:34 | 55.88428 | 13.07020 | 36802 ft | 484 kts | 141° |
| 2026-05-04 02:34 | 55.83613 | 13.15311 | 36794 ft | 482 kts | 141° |
| 2026-05-04 02:35 | 55.78770 | 13.23619 | 36802 ft | 482 kts | 141° |
| 2026-05-04 02:35 | 55.73958 | 13.31843 | 36804 ft | 482 kts | 141° |
| 2026-05-04 02:36 | 55.69110 | 13.40098 | 36803 ft | 482 kts | 141° |
| 2026-05-04 02:36 | 55.64280 | 13.48293 | 36808 ft | 481 kts | 142° |
| 2026-05-04 02:37 | 55.59434 | 13.56487 | 36797 ft | 481 kts | 142° |
| 2026-05-04 02:37 | 55.54582 | 13.64661 | 36803 ft | 481 kts | 142° |
| 2026-05-04 02:38 | 55.49766 | 13.72745 | 36804 ft | 480 kts | 142° |
| 2026-05-04 02:38 | 55.44914 | 13.80862 | 36808 ft | 479 kts | 142° |
| 2026-05-04 02:39 | 55.40098 | 13.88889 | 36806 ft | 479 kts | 142° |
| 2026-05-04 02:39 | 55.35239 | 13.96959 | 36785 ft | 479 kts | 142° |
| 2026-05-04 02:40 | 55.30404 | 14.04961 | 36810 ft | 479 kts | 142° |
| 2026-05-04 02:40 | 55.25543 | 14.12978 | 36815 ft | 479 kts | 142° |
| 2026-05-04 02:41 | 55.20701 | 14.20934 | 36818 ft | 480 kts | 142° |
| 2026-05-04 02:41 | 55.15811 | 14.28942 | 36823 ft | 480 kts | 142° |
| 2026-05-04 02:42 | 55.10907 | 14.36945 | 36829 ft | 481 kts | 142° |
| 2026-05-04 02:42 | 55.06043 | 14.44857 | 36834 ft | 480 kts | 142° |
| 2026-05-04 02:43 | 55.01139 | 14.52804 | 36840 ft | 481 kts | 142° |
| 2026-05-04 02:43 | 54.96253 | 14.60697 | 36837 ft | 481 kts | 142° |
| 2026-05-04 02:44 | 54.91331 | 14.68620 | 36838 ft | 481 kts | 142° |
| 2026-05-04 02:44 | 54.86440 | 14.76468 | 36835 ft | 481 kts | 142° |
| 2026-05-04 02:45 | 54.81282 | 14.83693 | 36830 ft | 470 kts | 155° |
| 2026-05-04 02:45 | 54.75321 | 14.87930 | 36856 ft | 458 kts | 172° |
| 2026-05-04 02:46 | 54.69119 | 14.90098 | 36853 ft | 457 kts | 173° |
| 2026-05-04 02:46 | 54.62872 | 14.92282 | 36853 ft | 458 kts | 173° |
| 2026-05-04 02:47 | 54.56616 | 14.94550 | 36846 ft | 459 kts | 172° |
| 2026-05-04 02:47 | 54.50346 | 14.96837 | 36865 ft | 460 kts | 172° |
| 2026-05-04 02:48 | 54.44143 | 14.99409 | 36858 ft | 465 kts | 165° |
| 2026-05-04 02:48 | 54.38330 | 15.04362 | 36874 ft | 474 kts | 152° |
| 2026-05-04 02:49 | 54.33043 | 15.11297 | 36858 ft | 478 kts | 146° |
| 2026-05-04 02:49 | 54.27878 | 15.18388 | 36883 ft | 478 kts | 146° |
| 2026-05-04 02:50 | 54.22650 | 15.25477 | 36887 ft | 478 kts | 146° |
| 2026-05-04 02:50 | 54.17406 | 15.32497 | 36876 ft | 478 kts | 147° |
| 2026-05-04 02:51 | 54.12178 | 15.39451 | 36875 ft | 479 kts | 147° |
| 2026-05-04 02:51 | 54.06915 | 15.46430 | 36881 ft | 479 kts | 147° |
| 2026-05-04 02:52 | 54.01676 | 15.53357 | 36903 ft | 478 kts | 147° |
| 2026-05-04 02:52 | 53.96411 | 15.60298 | 36899 ft | 478 kts | 147° |
| 2026-05-04 02:53 | 53.91178 | 15.67173 | 36895 ft | 477 kts | 147° |
| 2026-05-04 02:53 | 53.85923 | 15.74055 | 36899 ft | 477 kts | 147° |
| 2026-05-04 02:54 | 53.80658 | 15.80927 | 36907 ft | 476 kts | 147° |
| 2026-05-04 02:54 | 53.75424 | 15.87736 | 36900 ft | 476 kts | 147° |
| 2026-05-04 02:55 | 53.67526 | 15.97969 | 36897 ft | 477 kts | 147° |
| 2026-05-04 02:56 | 53.62282 | 16.04736 | 36907 ft | 477 kts | 147° |
| 2026-05-04 02:56 | 53.56993 | 16.11540 | 36912 ft | 478 kts | 147° |
| 2026-05-04 02:57 | 53.51735 | 16.18283 | 36909 ft | 478 kts | 147° |
| 2026-05-04 02:57 | 53.47319 | 16.23929 | 36897 ft | 478 kts | 147° |
| 2026-05-04 02:58 | 53.41138 | 16.31806 | 36920 ft | 479 kts | 147° |
| 2026-05-04 02:58 | 53.36714 | 16.37427 | 36903 ft | 480 kts | 147° |
| 2026-05-04 02:59 | 53.31372 | 16.44195 | 36914 ft | 480 kts | 147° |
| 2026-05-04 02:59 | 53.26056 | 16.50907 | 36919 ft | 480 kts | 147° |
| 2026-05-04 03:00 | 53.20744 | 16.57598 | 36904 ft | 480 kts | 147° |
| 2026-05-04 03:00 | 53.15341 | 16.64161 | 36920 ft | 477 kts | 152° |
| 2026-05-04 03:01 | 53.09627 | 16.69773 | 36932 ft | 476 kts | 154° |
| 2026-05-04 03:01 | 53.03926 | 16.75274 | 36918 ft | 476 kts | 154° |
| 2026-05-04 03:02 | 52.98191 | 16.80838 | 36928 ft | 476 kts | 153° |
| 2026-05-04 03:02 | 52.92491 | 16.86386 | 36933 ft | 477 kts | 153° |
| 2026-05-04 03:03 | 52.86765 | 16.91951 | 36925 ft | 476 kts | 153° |
| 2026-05-04 03:03 | 52.81045 | 16.97493 | 36939 ft | 476 kts | 153° |
| 2026-05-04 03:04 | 52.75353 | 17.02989 | 36926 ft | 476 kts | 153° |
| 2026-05-04 03:04 | 52.69638 | 17.08489 | 36937 ft | 475 kts | 153° |
| 2026-05-04 03:05 | 52.63923 | 17.13973 | 36948 ft | 475 kts | 153° |
| 2026-05-04 03:05 | 52.58232 | 17.19416 | 36948 ft | 475 kts | 153° |
| 2026-05-04 03:06 | 52.52513 | 17.24870 | 36940 ft | 475 kts | 153° |
| 2026-05-04 03:06 | 52.46784 | 17.30317 | 36952 ft | 476 kts | 153° |
| 2026-05-04 03:07 | 52.41043 | 17.35757 | 36964 ft | 476 kts | 153° |
| 2026-05-04 03:07 | 52.35297 | 17.41188 | 36960 ft | 477 kts | 153° |
| 2026-05-04 03:08 | 52.29540 | 17.46611 | 36960 ft | 478 kts | 153° |
| 2026-05-04 03:08 | 52.23810 | 17.51994 | 36962 ft | 478 kts | 153° |
| 2026-05-04 03:09 | 52.18041 | 17.57395 | 36960 ft | 478 kts | 152° |
| 2026-05-04 03:09 | 52.12272 | 17.62782 | 36968 ft | 479 kts | 153° |
| 2026-05-04 03:10 | 52.06469 | 17.68183 | 36967 ft | 479 kts | 153° |
| 2026-05-04 03:10 | 52.00715 | 17.73524 | 36970 ft | 479 kts | 153° |
| 2026-05-04 03:11 | 51.94915 | 17.78890 | 36976 ft | 479 kts | 153° |
| 2026-05-04 03:11 | 51.89116 | 17.84239 | 36970 ft | 479 kts | 152° |
| 2026-05-04 03:12 | 51.83317 | 17.89572 | 36985 ft | 480 kts | 152° |
| 2026-05-04 03:12 | 51.77535 | 17.94873 | 36968 ft | 481 kts | 152° |
| 2026-05-04 03:13 | 51.71692 | 18.00216 | 36989 ft | 482 kts | 152° |
| 2026-05-04 03:13 | 51.65845 | 18.05545 | 36991 ft | 482 kts | 152° |
| 2026-05-04 03:14 | 51.60016 | 18.10843 | 36971 ft | 482 kts | 153° |
| 2026-05-04 03:14 | 51.54157 | 18.16151 | 36987 ft | 483 kts | 152° |
| 2026-05-04 03:15 | 51.48317 | 18.21426 | 36991 ft | 484 kts | 152° |
| 2026-05-04 03:15 | 51.42436 | 18.26724 | 36992 ft | 484 kts | 152° |
| 2026-05-04 03:16 | 51.36549 | 18.32011 | 36994 ft | 484 kts | 152° |
| 2026-05-04 03:16 | 51.30701 | 18.37247 | 36992 ft | 484 kts | 152° |
| 2026-05-04 03:17 | 51.24799 | 18.42515 | 36997 ft | 485 kts | 152° |
| 2026-05-04 03:17 | 51.18923 | 18.47745 | 37004 ft | 485 kts | 152° |
| 2026-05-04 03:18 | 51.13006 | 18.52997 | 37008 ft | 486 kts | 152° |
| 2026-05-04 03:18 | 51.07092 | 18.58230 | 37012 ft | 486 kts | 152° |
| 2026-05-04 03:19 | 51.01198 | 18.63431 | 37006 ft | 487 kts | 152° |
| 2026-05-04 03:19 | 50.95254 | 18.68662 | 37016 ft | 487 kts | 152° |
| 2026-05-04 03:20 | 50.89351 | 18.73841 | 37017 ft | 487 kts | 152° |
| 2026-05-04 03:20 | 50.83503 | 18.79328 | 37024 ft | 488 kts | 149° |
| 2026-05-04 03:21 | 50.77740 | 18.85040 | 37023 ft | 488 kts | 149° |
| 2026-05-04 03:21 | 50.72001 | 18.90685 | 37025 ft | 488 kts | 149° |
| 2026-05-04 03:22 | 50.66221 | 18.96291 | 37025 ft | 487 kts | 149° |
| 2026-05-04 03:22 | 50.60453 | 19.01842 | 37043 ft | 488 kts | 149° |
| 2026-05-04 03:23 | 50.54634 | 19.07426 | 37053 ft | 488 kts | 149° |
| 2026-05-04 03:23 | 50.48824 | 19.12989 | 37049 ft | 489 kts | 149° |
| 2026-05-04 03:24 | 50.43044 | 19.18507 | 37045 ft | 489 kts | 149° |
| 2026-05-04 03:24 | 50.37210 | 19.24062 | 37050 ft | 489 kts | 149° |
| 2026-05-04 03:25 | 50.31374 | 19.29602 | 37043 ft | 490 kts | 149° |
| 2026-05-04 03:25 | 50.25578 | 19.35089 | 37052 ft | 490 kts | 149° |
| 2026-05-04 03:26 | 50.19722 | 19.40616 | 37049 ft | 491 kts | 149° |
| 2026-05-04 03:26 | 50.13866 | 19.46128 | 37050 ft | 491 kts | 149° |
| 2026-05-04 03:27 | 50.08058 | 19.51578 | 37055 ft | 491 kts | 149° |
| 2026-05-04 03:27 | 50.02198 | 19.57061 | 37065 ft | 491 kts | 149° |
| 2026-05-04 03:28 | 49.96328 | 19.62540 | 37068 ft | 491 kts | 149° |
| 2026-05-04 03:28 | 49.90489 | 19.67972 | 37073 ft | 492 kts | 149° |
| 2026-05-04 03:29 | 49.84607 | 19.73431 | 37075 ft | 492 kts | 149° |
| 2026-05-04 03:29 | 49.78717 | 19.78882 | 37092 ft | 492 kts | 149° |
| 2026-05-04 03:30 | 49.72825 | 19.84179 | 37087 ft | 492 kts | 151° |
| 2026-05-04 03:30 | 49.66749 | 19.89063 | 37106 ft | 492 kts | 153° |
| 2026-05-04 03:31 | 49.60649 | 19.93908 | 37102 ft | 492 kts | 152° |
| 2026-05-04 03:31 | 49.54606 | 19.98781 | 37108 ft | 492 kts | 152° |
| 2026-05-04 03:32 | 49.48533 | 20.03702 | 37112 ft | 492 kts | 152° |
| 2026-05-04 03:32 | 49.42507 | 20.08570 | 37122 ft | 492 kts | 152° |
| 2026-05-04 03:33 | 49.36427 | 20.13463 | 37118 ft | 492 kts | 152° |
| 2026-05-04 03:33 | 49.30352 | 20.18329 | 37130 ft | 492 kts | 152° |
| 2026-05-04 03:34 | 49.24203 | 20.22860 | 37134 ft | 493 kts | 154° |
| 2026-05-04 03:34 | 49.17956 | 20.27273 | 37132 ft | 492 kts | 154° |
| 2026-05-04 03:35 | 49.11771 | 20.31678 | 37137 ft | 492 kts | 154° |
| 2026-05-04 03:35 | 49.05550 | 20.36144 | 37129 ft | 493 kts | 154° |
| 2026-05-04 03:36 | 48.99372 | 20.40577 | 37133 ft | 493 kts | 154° |
| 2026-05-04 03:36 | 48.93153 | 20.45026 | 37138 ft | 493 kts | 154° |
| 2026-05-04 03:37 | 48.86958 | 20.49441 | 37135 ft | 494 kts | 154° |
| 2026-05-04 03:37 | 48.80726 | 20.53871 | 37148 ft | 494 kts | 154° |
| 2026-05-04 03:38 | 48.74496 | 20.58288 | 37138 ft | 494 kts | 154° |
| 2026-05-04 03:38 | 48.68249 | 20.62706 | 37138 ft | 494 kts | 154° |
| 2026-05-04 03:39 | 48.62042 | 20.67083 | 37141 ft | 494 kts | 153° |
| 2026-05-04 03:39 | 48.56132 | 20.72353 | 37136 ft | 492 kts | 142° |
| 2026-05-04 03:40 | 48.50960 | 20.79071 | 37144 ft | 490 kts | 134° |
| 2026-05-04 03:40 | 48.46054 | 20.86245 | 37137 ft | 490 kts | 134° |
| 2026-05-04 03:41 | 48.41166 | 20.93348 | 37137 ft | 491 kts | 134° |
| 2026-05-04 03:41 | 48.36220 | 21.00454 | 37140 ft | 491 kts | 134° |
| 2026-05-04 03:42 | 48.31263 | 21.07537 | 37149 ft | 490 kts | 134° |
| 2026-05-04 03:42 | 48.26331 | 21.14561 | 37127 ft | 490 kts | 134° |
| 2026-05-04 03:43 | 48.21371 | 21.21607 | 37126 ft | 490 kts | 134° |
| 2026-05-04 03:43 | 48.16414 | 21.28632 | 37131 ft | 490 kts | 134° |
| 2026-05-04 03:44 | 48.11464 | 21.35628 | 37129 ft | 490 kts | 134° |
| 2026-05-04 03:44 | 48.06517 | 21.42600 | 37135 ft | 490 kts | 134° |
| 2026-05-04 03:45 | 48.01546 | 21.49586 | 37151 ft | 490 kts | 134° |
| 2026-05-04 03:45 | 47.96574 | 21.56554 | 37150 ft | 490 kts | 134° |
| 2026-05-04 03:46 | 47.92431 | 21.62347 | 37152 ft | 490 kts | 134° |
| 2026-05-04 03:46 | 47.87436 | 21.69311 | 37166 ft | 491 kts | 134° |
| 2026-05-04 03:47 | 47.82465 | 21.76224 | 37155 ft | 491 kts | 134° |
| 2026-05-04 03:47 | 47.77461 | 21.83163 | 37150 ft | 491 kts | 134° |
| 2026-05-04 03:48 | 47.72449 | 21.90096 | 37159 ft | 491 kts | 134° |
| 2026-05-04 03:48 | 47.67440 | 21.97006 | 37166 ft | 492 kts | 134° |
| 2026-05-04 03:49 | 47.62452 | 22.03869 | 37163 ft | 492 kts | 134° |
| 2026-05-04 03:49 | 47.57045 | 22.10134 | 37159 ft | 495 kts | 146° |
| 2026-05-04 03:50 | 47.50817 | 22.14578 | 37165 ft | 498 kts | 158° |
| 2026-05-04 03:50 | 47.44314 | 22.18032 | 37170 ft | 499 kts | 158° |
| 2026-05-04 03:51 | 47.37762 | 22.21499 | 37182 ft | 500 kts | 158° |
| 2026-05-04 03:51 | 47.31210 | 22.25025 | 37171 ft | 500 kts | 158° |
| 2026-05-04 03:52 | 47.24710 | 22.28543 | 37178 ft | 500 kts | 158° |
| 2026-05-04 03:52 | 47.18158 | 22.32082 | 37176 ft | 500 kts | 158° |
| 2026-05-04 03:53 | 47.11611 | 22.35606 | 37177 ft | 500 kts | 158° |
| 2026-05-04 03:53 | 47.05106 | 22.39096 | 37175 ft | 500 kts | 158° |
| 2026-05-04 03:54 | 46.98551 | 22.42604 | 37189 ft | 500 kts | 158° |
| 2026-05-04 03:54 | 46.92029 | 22.46085 | 37184 ft | 500 kts | 158° |
| 2026-05-04 03:55 | 46.85467 | 22.49579 | 37185 ft | 500 kts | 158° |
| 2026-05-04 03:55 | 46.78927 | 22.53053 | 37179 ft | 500 kts | 158° |
| 2026-05-04 03:56 | 46.72406 | 22.56508 | 37198 ft | 500 kts | 158° |
| 2026-05-04 03:56 | 46.65905 | 22.60192 | 37198 ft | 500 kts | 156° |
| 2026-05-04 03:57 | 46.59489 | 22.63992 | 37191 ft | 500 kts | 155° |
| 2026-05-04 03:57 | 46.53037 | 22.67790 | 37198 ft | 500 kts | 156° |
| 2026-05-04 03:58 | 46.43378 | 22.73394 | 37206 ft | 500 kts | 156° |
| 2026-05-04 03:58 | 46.36906 | 22.77123 | 37207 ft | 499 kts | 156° |
| 2026-05-04 03:59 | 46.30441 | 22.80841 | 37191 ft | 499 kts | 156° |
| 2026-05-04 03:59 | 46.24015 | 22.84529 | 37206 ft | 498 kts | 156° |
| 2026-05-04 04:00 | 46.17557 | 22.88226 | 37208 ft | 498 kts | 156° |
| 2026-05-04 04:00 | 46.11129 | 22.91897 | 37211 ft | 499 kts | 156° |
| 2026-05-04 04:01 | 46.04635 | 22.95597 | 37207 ft | 500 kts | 156° |
| 2026-05-04 04:01 | 45.98182 | 22.99264 | 37204 ft | 501 kts | 156° |
| 2026-05-04 04:02 | 45.91664 | 23.02959 | 37205 ft | 502 kts | 156° |
| 2026-05-04 04:02 | 45.85156 | 23.06638 | 37223 ft | 502 kts | 155° |
| 2026-05-04 04:03 | 45.78655 | 23.10303 | 37218 ft | 505 kts | 155° |
| 2026-05-04 04:03 | 45.72095 | 23.13994 | 37211 ft | 506 kts | 155° |
| 2026-05-04 04:04 | 45.65570 | 23.17656 | 37196 ft | 507 kts | 155° |
| 2026-05-04 04:04 | 45.58972 | 23.21347 | 37209 ft | 508 kts | 155° |
| 2026-05-04 04:05 | 45.52369 | 23.25032 | 37210 ft | 510 kts | 155° |
| 2026-05-04 04:05 | 45.45776 | 23.28704 | 37194 ft | 510 kts | 155° |
| 2026-05-04 04:06 | 45.39156 | 23.32380 | 37181 ft | 509 kts | 155° |
| 2026-05-04 04:06 | 45.32578 | 23.36024 | 37180 ft | 508 kts | 155° |
| 2026-05-04 04:07 | 45.25986 | 23.39667 | 37166 ft | 507 kts | 155° |
| 2026-05-04 04:07 | 45.19453 | 23.43268 | 37157 ft | 505 kts | 155° |
| 2026-05-04 04:08 | 45.12911 | 23.46865 | 37159 ft | 503 kts | 155° |
| 2026-05-04 04:08 | 45.06383 | 23.50447 | 37151 ft | 502 kts | 156° |
| 2026-05-04 04:09 | 44.99887 | 23.54003 | 37161 ft | 501 kts | 156° |
| 2026-05-04 04:09 | 44.93366 | 23.57563 | 37170 ft | 502 kts | 156° |
| 2026-05-04 04:10 | 44.86850 | 23.61112 | 37155 ft | 501 kts | 156° |
| 2026-05-04 04:10 | 44.80333 | 23.64651 | 37167 ft | 501 kts | 156° |
| 2026-05-04 04:11 | 44.73858 | 23.68160 | 37165 ft | 501 kts | 156° |
| 2026-05-04 04:11 | 44.67334 | 23.71688 | 37189 ft | 502 kts | 156° |
| 2026-05-04 04:12 | 44.60803 | 23.75210 | 37164 ft | 502 kts | 156° |
| 2026-05-04 04:12 | 44.54310 | 23.78704 | 37151 ft | 501 kts | 156° |
| 2026-05-04 04:13 | 44.47783 | 23.82206 | 37136 ft | 501 kts | 156° |
| 2026-05-04 04:13 | 44.41312 | 23.85671 | 37134 ft | 500 kts | 156° |
| 2026-05-04 04:14 | 44.34788 | 23.89157 | 37138 ft | 500 kts | 156° |
| 2026-05-04 04:14 | 44.28282 | 23.92624 | 37172 ft | 500 kts | 156° |
| 2026-05-04 04:15 | 44.21780 | 23.96081 | 37170 ft | 500 kts | 156° |
| 2026-05-04 04:15 | 44.15282 | 23.99527 | 37163 ft | 499 kts | 156° |
| 2026-05-04 04:16 | 44.08821 | 24.02947 | 37194 ft | 499 kts | 157° |
| 2026-05-04 04:16 | 44.02322 | 24.06378 | 37175 ft | 499 kts | 157° |
| 2026-05-04 04:17 | 43.95830 | 24.09797 | 37173 ft | 499 kts | 157° |
| 2026-05-04 04:17 | 43.89337 | 24.13209 | 37175 ft | 499 kts | 157° |
| 2026-05-04 04:18 | 43.82845 | 24.16613 | 37177 ft | 499 kts | 157° |
| 2026-05-04 04:18 | 43.76376 | 24.19999 | 37189 ft | 499 kts | 157° |
| 2026-05-04 04:19 | 43.70049 | 24.23927 | 37178 ft | 496 kts | 147° |
| 2026-05-04 04:19 | 43.64530 | 24.29512 | 37183 ft | 492 kts | 134° |
| 2026-05-04 04:20 | 43.59630 | 24.36094 | 37187 ft | 492 kts | 133° |
| 2026-05-04 04:20 | 43.54734 | 24.42719 | 37199 ft | 493 kts | 133° |
| 2026-05-04 04:21 | 43.49805 | 24.49295 | 37192 ft | 493 kts | 134° |
| 2026-05-04 04:21 | 43.44879 | 24.55809 | 37190 ft | 493 kts | 134° |
| 2026-05-04 04:22 | 43.39956 | 24.62301 | 37209 ft | 493 kts | 134° |
| 2026-05-04 04:22 | 43.34985 | 24.68842 | 37188 ft | 494 kts | 134° |
| 2026-05-04 04:23 | 43.30027 | 24.75355 | 37185 ft | 493 kts | 134° |
| 2026-05-04 04:23 | 43.25054 | 24.81872 | 37181 ft | 493 kts | 134° |
| 2026-05-04 04:24 | 43.20084 | 24.88370 | 37185 ft | 492 kts | 134° |
| 2026-05-04 04:24 | 43.15142 | 24.94818 | 37171 ft | 492 kts | 134° |
| 2026-05-04 04:25 | 43.10165 | 25.01294 | 37175 ft | 492 kts | 134° |
| 2026-05-04 04:25 | 43.05234 | 25.07702 | 37181 ft | 492 kts | 134° |
| 2026-05-04 04:26 | 43.00264 | 25.14152 | 37170 ft | 491 kts | 135° |
| 2026-05-04 04:26 | 42.95294 | 25.20586 | 37150 ft | 490 kts | 135° |
| 2026-05-04 04:27 | 42.90374 | 25.26942 | 37150 ft | 489 kts | 135° |
| 2026-05-04 04:27 | 42.85409 | 25.33338 | 37147 ft | 491 kts | 134° |
| 2026-05-04 04:28 | 42.80429 | 25.39743 | 37147 ft | 493 kts | 135° |
| 2026-05-04 04:28 | 42.75446 | 25.46135 | 37147 ft | 495 kts | 134° |
| 2026-05-04 04:29 | 42.70424 | 25.52561 | 37145 ft | 496 kts | 134° |
| 2026-05-04 04:29 | 42.65422 | 25.58946 | 37138 ft | 495 kts | 135° |
| 2026-05-04 04:30 | 42.60390 | 25.65356 | 37118 ft | 494 kts | 135° |
| 2026-05-04 04:30 | 42.55396 | 25.71703 | 37116 ft | 493 kts | 135° |
| 2026-05-04 04:31 | 42.50385 | 25.78056 | 37118 ft | 492 kts | 135° |
| 2026-05-04 04:31 | 42.45383 | 25.84383 | 37108 ft | 491 kts | 135° |
| 2026-05-04 04:32 | 42.40398 | 25.90675 | 37101 ft | 491 kts | 135° |
| 2026-05-04 04:32 | 42.35399 | 25.96972 | 37104 ft | 490 kts | 135° |
| 2026-05-04 04:33 | 42.30396 | 26.03260 | 37092 ft | 490 kts | 135° |
| 2026-05-04 04:33 | 42.25663 | 26.09811 | 37108 ft | 488 kts | 127° |
| 2026-05-04 04:34 | 42.21868 | 26.17383 | 37092 ft | 486 kts | 117° |
| 2026-05-04 04:34 | 42.19142 | 26.24032 | 37106 ft | 487 kts | 117° |
| 2026-05-04 04:35 | 42.15861 | 26.32027 | 37098 ft | 487 kts | 117° |
| 2026-05-04 04:35 | 42.12536 | 26.40007 | 37084 ft | 488 kts | 118° |
| 2026-05-04 04:36 | 42.09212 | 26.47920 | 37087 ft | 488 kts | 118° |
| 2026-05-04 04:36 | 42.07536 | 26.51902 | 36801 ft | 492 kts | 118° |
| 2026-05-04 04:36 | 42.05831 | 26.55950 | 36084 ft | 489 kts | 118° |
| 2026-05-04 04:37 | 42.00918 | 26.67582 | 33316 ft | 464 kts | 118° |
| 2026-05-04 04:37 | 41.99337 | 26.71319 | 32340 ft | 454 kts | 118° |
| 2026-05-04 04:38 | 41.97805 | 26.74932 | 31460 ft | 447 kts | 118° |
| 2026-05-04 04:38 | 41.96243 | 26.78569 | 30767 ft | 445 kts | 119° |
| 2026-05-04 04:38 | 41.94644 | 26.82126 | 30263 ft | 443 kts | 120° |
| 2026-05-04 04:38 | 41.93033 | 26.85656 | 29703 ft | 443 kts | 120° |
| 2026-05-04 04:39 | 41.91424 | 26.89194 | 29161 ft | 443 kts | 120° |
| 2026-05-04 04:39 | 41.89845 | 26.92683 | 28668 ft | 441 kts | 120° |
| 2026-05-04 04:39 | 41.88247 | 26.96209 | 28159 ft | 440 kts | 120° |
| 2026-05-04 04:39 | 41.86652 | 26.99717 | 27649 ft | 438 kts | 120° |
| 2026-05-04 04:40 | 41.85082 | 27.03163 | 27193 ft | 436 kts | 120° |
| 2026-05-04 04:40 | 41.83510 | 27.06613 | 26691 ft | 430 kts | 120° |
| 2026-05-04 04:40 | 41.81958 | 27.10014 | 26186 ft | 424 kts | 120° |
| 2026-05-04 04:40 | 41.80421 | 27.13352 | 25746 ft | 417 kts | 121° |
| 2026-05-04 04:41 | 41.78825 | 27.16539 | 25348 ft | 410 kts | 123° |
| 2026-05-04 04:41 | 41.77193 | 27.19658 | 24812 ft | 407 kts | 123° |
| 2026-05-04 04:41 | 41.75573 | 27.22744 | 24358 ft | 403 kts | 123° |
| 2026-05-04 04:41 | 41.73977 | 27.25812 | 23902 ft | 399 kts | 123° |
| 2026-05-04 04:42 | 41.72404 | 27.28866 | 23425 ft | 396 kts | 122° |
| 2026-05-04 04:42 | 41.70845 | 27.31899 | 22906 ft | 393 kts | 122° |
| 2026-05-04 04:42 | 41.69304 | 27.34841 | 22465 ft | 389 kts | 124° |
| 2026-05-04 04:42 | 41.67554 | 27.37597 | 22025 ft | 386 kts | 130° |
| 2026-05-04 04:43 | 41.65734 | 27.40240 | 21571 ft | 383 kts | 130° |
| 2026-05-04 04:43 | 41.63934 | 27.42851 | 21146 ft | 379 kts | 129° |
| 2026-05-04 04:43 | 41.62155 | 27.45439 | 20729 ft | 376 kts | 129° |
| 2026-05-04 04:43 | 41.60393 | 27.48006 | 20307 ft | 373 kts | 129° |
| 2026-05-04 04:44 | 41.58660 | 27.50536 | 19891 ft | 372 kts | 129° |
| 2026-05-04 04:44 | 41.56904 | 27.53103 | 19465 ft | 373 kts | 129° |
| 2026-05-04 04:44 | 41.55144 | 27.55676 | 19058 ft | 374 kts | 128° |
| 2026-05-04 04:44 | 41.53387 | 27.58241 | 18637 ft | 373 kts | 128° |
| 2026-05-04 04:45 | 41.51660 | 27.60761 | 18200 ft | 371 kts | 128° |
| 2026-05-04 04:45 | 41.49920 | 27.63299 | 17714 ft | 369 kts | 128° |
| 2026-05-04 04:45 | 41.48190 | 27.65819 | 17274 ft | 366 kts | 128° |
| 2026-05-04 04:47 | 41.38048 | 27.80557 | 14847 ft | 357 kts | 128° |
| 2026-05-04 04:47 | 41.36397 | 27.82948 | 14451 ft | 354 kts | 128° |
| 2026-05-04 04:47 | 41.34732 | 27.85358 | 14063 ft | 352 kts | 128° |
| 2026-05-04 04:47 | 41.33072 | 27.87758 | 13642 ft | 350 kts | 128° |
| 2026-05-04 04:48 | 41.31422 | 27.90143 | 13216 ft | 348 kts | 129° |
| 2026-05-04 04:49 | 41.24938 | 27.99496 | 11640 ft | 340 kts | 129° |
| 2026-05-04 04:49 | 41.23353 | 28.01778 | 11303 ft | 338 kts | 129° |
| 2026-05-04 04:49 | 41.21759 | 28.04071 | 10927 ft | 336 kts | 129° |
| 2026-05-04 04:49 | 41.20175 | 28.06347 | 10562 ft | 333 kts | 129° |
| 2026-05-04 04:50 | 41.18600 | 28.08608 | 10198 ft | 331 kts | 128° |
| 2026-05-04 04:50 | 41.17060 | 28.10816 | 9914 ft | 327 kts | 129° |
| 2026-05-04 04:50 | 41.15534 | 28.13004 | 9710 ft | 318 kts | 128° |
| 2026-05-04 04:50 | 41.14067 | 28.15100 | 9556 ft | 299 kts | 128° |
| 2026-05-04 04:51 | 41.12682 | 28.17078 | 9173 ft | 286 kts | 128° |
| 2026-05-04 04:51 | 41.11346 | 28.18991 | 8673 ft | 279 kts | 128° |
| 2026-05-04 04:51 | 41.10050 | 28.20848 | 8122 ft | 276 kts | 128° |
| 2026-05-04 04:51 | 41.08757 | 28.22698 | 7752 ft | 271 kts | 127° |
| 2026-05-04 04:52 | 41.07470 | 28.24543 | 7452 ft | 273 kts | 127° |
| 2026-05-04 04:52 | 41.06177 | 28.26391 | 7115 ft | 273 kts | 127° |
| 2026-05-04 04:52 | 41.04886 | 28.28236 | 6811 ft | 272 kts | 127° |
| 2026-05-04 04:52 | 41.03602 | 28.30070 | 6495 ft | 271 kts | 127° |
| 2026-05-04 04:53 | 41.02334 | 28.31878 | 6160 ft | 270 kts | 127° |
| 2026-05-04 04:53 | 41.01052 | 28.33704 | 5836 ft | 270 kts | 127° |
| 2026-05-04 04:53 | 40.99775 | 28.35520 | 5543 ft | 268 kts | 127° |
| 2026-05-04 04:53 | 40.98512 | 28.37314 | 5274 ft | 265 kts | 127° |
| 2026-05-04 04:54 | 40.97305 | 28.39113 | 5079 ft | 253 kts | 119° |
| 2026-05-04 04:54 | 40.96406 | 28.41033 | 5029 ft | 237 kts | 112° |
| 2026-05-04 04:54 | 40.95621 | 28.42943 | 5025 ft | 238 kts | 111° |
| 2026-05-04 04:54 | 40.94839 | 28.44850 | 5016 ft | 238 kts | 111° |
| 2026-05-04 04:55 | 40.94044 | 28.46761 | 4989 ft | 235 kts | 112° |
| 2026-05-04 04:55 | 40.93247 | 28.48646 | 5008 ft | 233 kts | 112° |
| 2026-05-04 04:55 | 40.92454 | 28.50505 | 4997 ft | 231 kts | 112° |
| 2026-05-04 04:55 | 40.91660 | 28.52350 | 4995 ft | 229 kts | 113° |
| 2026-05-04 04:56 | 40.90875 | 28.54171 | 5007 ft | 233 kts | 113° |
| 2026-05-04 04:56 | 40.90061 | 28.56056 | 5006 ft | 236 kts | 113° |
| 2026-05-04 04:56 | 40.89348 | 28.57985 | 4985 ft | 226 kts | 95° |
| 2026-05-04 04:56 | 40.89436 | 28.59919 | 5014 ft | 210 kts | 67° |
| 2026-05-04 04:57 | 40.89920 | 28.61766 | 5028 ft | 215 kts | 66° |
| 2026-05-04 04:57 | 40.90400 | 28.63657 | 4997 ft | 217 kts | 66° |
| 2026-05-04 04:57 | 40.90879 | 28.65535 | 4972 ft | 213 kts | 66° |
| 2026-05-04 04:57 | 40.91351 | 28.67377 | 4995 ft | 210 kts | 65° |
| 2026-05-04 04:58 | 40.92030 | 28.69002 | 4997 ft | 200 kts | 42° |
| 2026-05-04 04:58 | 40.93160 | 28.70103 | 4997 ft | 204 kts | 29° |
| 2026-05-04 04:58 | 40.94403 | 28.71024 | 4974 ft | 204 kts | 28° |
| 2026-05-04 04:58 | 40.95644 | 28.71925 | 4976 ft | 202 kts | 27° |
| 2026-05-04 04:59 | 40.96858 | 28.72807 | 4976 ft | 199 kts | 27° |
| 2026-05-04 04:59 | 40.98152 | 28.73306 | 4999 ft | 195 kts | 5° |
| 2026-05-04 04:59 | 40.99518 | 28.73329 | 5002 ft | 197 kts | 4° |
| 2026-05-04 04:59 | 41.00884 | 28.73338 | 4977 ft | 195 kts | 2° |
| 2026-05-04 05:00 | 41.02223 | 28.73323 | 4963 ft | 190 kts | 2° |
| 2026-05-04 05:00 | 41.03559 | 28.73297 | 4754 ft | 195 kts | 2° |
| 2026-05-04 05:00 | 41.06239 | 28.73237 | 4261 ft | 186 kts | 2° |
| 2026-05-04 05:01 | 41.07493 | 28.73207 | 4022 ft | 178 kts | 2° |
| 2026-05-04 05:01 | 41.08718 | 28.73180 | 3763 ft | 173 kts | 2° |
| 2026-05-04 05:01 | 41.09892 | 28.73152 | 3516 ft | 164 kts | 1° |
| 2026-05-04 05:01 | 41.11002 | 28.73126 | 3308 ft | 154 kts | 1° |
| 2026-05-04 05:02 | 41.12064 | 28.73103 | 3170 ft | 151 kts | 1° |
| 2026-05-04 05:02 | 41.13110 | 28.73077 | 2977 ft | 150 kts | 1° |
| 2026-05-04 05:02 | 41.14159 | 28.73055 | 2779 ft | 151 kts | 2° |
| 2026-05-04 05:02 | 41.15181 | 28.73033 | 2565 ft | 145 kts | 1° |
| 2026-05-04 05:03 | 41.16163 | 28.73008 | 2389 ft | 137 kts | 1° |
| 2026-05-04 05:03 | 41.17068 | 28.72988 | 2209 ft | 128 kts | 0° |
| 2026-05-04 05:04 | 41.19670 | 28.72928 | 1683 ft | 121 kts | 359° |
| 2026-05-04 05:04 | 41.20489 | 28.72909 | 1507 ft | 114 kts | 358° |
| 2026-05-04 05:04 | 41.21245 | 28.72891 | 1372 ft | 119 kts | 358° |
| 2026-05-04 05:06 | 41.27146 | 28.72754 | 337 ft | 98 kts | 359° |
| 2026-05-04 05:06 | 41.27701 | 28.72740 | 335 ft | 63 kts | 359° |
| 2026-05-04 05:06 | 41.27970 | 28.72774 | 336 ft | 29 kts | 18° |
| 2026-05-04 05:07 | 41.28079 | 28.72843 | 337 ft | 7 kts | 27° |
| 2026-05-04 05:07 | 41.28118 | 28.72872 | 335 ft | 7 kts | 31° |
| 2026-05-04 05:07 | 41.28141 | 28.72915 | 335 ft | 7 kts | 92° |
| 2026-05-04 05:09 | 41.27640 | 28.72972 | 334 ft | 12 kts | 179° |
| 2026-05-04 05:09 | 41.27545 | 28.72974 | 334 ft | 17 kts | 179° |
| 2026-05-04 05:10 | 41.27408 | 28.72976 | 335 ft | 21 kts | 179° |
| 2026-05-04 05:10 | 41.27261 | 28.72980 | 334 ft | 22 kts | 179° |
| 2026-05-04 05:10 | 41.27110 | 28.72984 | 338 ft | 22 kts | 179° |
| 2026-05-04 05:10 | 41.26995 | 28.72987 | 335 ft | 7 kts | 176° |
| 2026-05-04 05:11 | 41.26956 | 28.73020 | 337 ft | 7 kts | 112° |
| 2026-05-04 05:11 | 41.26953 | 28.73091 | 337 ft | 8 kts | 88° |
| 2026-05-04 05:11 | 41.26955 | 28.73161 | 337 ft | 8 kts | 88° |
| 2026-05-04 05:11 | 41.26956 | 28.73232 | 335 ft | 8 kts | 89° |
| 2026-05-04 05:12 | 41.26957 | 28.73296 | 335 ft | 8 kts | 89° |
| 2026-05-04 05:12 | 41.26957 | 28.73369 | 335 ft | 8 kts | 89° |
| 2026-05-04 05:12 | 41.26959 | 28.73494 | 338 ft | 21 kts | 89° |
| 2026-05-04 05:12 | 41.26962 | 28.73696 | 339 ft | 24 kts | 89° |
| 2026-05-04 05:13 | 41.26965 | 28.73885 | 339 ft | 24 kts | 89° |
| 2026-05-04 05:13 | 41.26967 | 28.74076 | 339 ft | 19 kts | 89° |
| 2026-05-04 05:13 | 41.26969 | 28.74254 | 339 ft | 19 kts | 89° |
| 2026-05-04 05:13 | 41.26971 | 28.74429 | 339 ft | 18 kts | 89° |
| 2026-05-04 05:14 | 41.26973 | 28.74527 | 335 ft | 9 kts | 89° |
| 2026-05-04 05:14 | 41.26942 | 28.74596 | 333 ft | 10 kts | 160° |
| 2026-05-04 05:14 | 41.26888 | 28.74641 | 333 ft | 10 kts | 122° |
| 2026-05-04 05:14 | 41.26887 | 28.74710 | 336 ft | 6 kts | 90° |
| 2026-05-04 05:15 | 41.26857 | 28.74745 | 335 ft | 7 kts | 171° |
| 2026-05-04 05:15 | 41.26819 | 28.74744 | 337 ft | 5 kts | 179° |
| 2026-05-04 05:15 | 41.26798 | 28.74744 | 334 ft | 1 kts | 179° |
| 2026-05-04 05:15 | 41.26790 | 28.74744 | 335 ft | 1 kts | 179° |